| time (UTC) | temp F | wind direction | speed MPH | gust MPH | rain 1hr in | rain 24hr in | rain mn in | humidity % | barometer mb |
| 20260502170505 | 71 | 352 | 4.0 | 10.0 | 0.00 | 0.03 | 0.00 | 49 | 1021.9 |
| 20260502170404 | 71 | 347 | 4.0 | 10.0 | 0.00 | 0.03 | 0.00 | 51 | 1021.9 |
| 20260502170305 | 71 | 340 | 3.0 | 10.0 | 0.00 | 0.03 | 0.00 | 54 | 1021.9 |
| 20260502170205 | 71 | 340 | 3.0 | 9.0 | 0.00 | 0.03 | 0.00 | 54 | 1021.9 |
| 20260502170105 | 71 | 344 | 3.0 | 9.0 | 0.00 | 0.03 | 0.00 | 53 | 1021.9 |
| 20260502164205 | 69 | 349 | 5.0 | 9.0 | 0.00 | 0.03 | 0.00 | 52 | 1022.0 |
| 20260502164104 | 69 | 351 | 4.0 | 9.0 | 0.00 | 0.03 | 0.00 | 52 | 1022.0 |
| 20260502164005 | 69 | 352 | 4.0 | 9.0 | 0.00 | 0.03 | 0.00 | 53 | 1022.0 |
| 20260502163905 | 69 | 354 | 4.0 | 9.0 | 0.00 | 0.03 | 0.00 | 53 | 1022.0 |
| 20260502163805 | 69 | 356 | 4.0 | 10.0 | 0.00 | 0.03 | 0.00 | 53 | 1022.0 |
| 20260502163704 | 69 | 355 | 4.0 | 10.0 | 0.00 | 0.03 | 0.00 | 52 | 1022.0 |
| 20260502163505 | 69 | 354 | 4.0 | 10.0 | 0.00 | 0.03 | 0.00 | 55 | 1022.1 |
| 20260502163405 | 69 | 353 | 4.0 | 10.0 | 0.00 | 0.03 | 0.00 | 55 | 1022.1 |
| 20260502163305 | 69 | 355 | 4.0 | 10.0 | 0.00 | 0.03 | 0.00 | 56 | 1022.1 |
| 20260502163204 | 69 | 352 | 4.0 | 10.0 | 0.00 | 0.03 | 0.00 | 54 | 1022.1 |
| 20260502163105 | 68 | 350 | 4.0 | 10.0 | 0.00 | 0.03 | 0.00 | 54 | 1022.1 |
| 20260502163004 | 68 | 351 | 4.0 | 10.0 | 0.00 | 0.03 | 0.00 | 54 | 1022.1 |
| 20260502162905 | 68 | 350 | 4.0 | 10.0 | 0.00 | 0.03 | 0.00 | 53 | 1022.1 |
| 20260502162805 | 68 | 347 | 4.0 | 10.0 | 0.00 | 0.03 | 0.00 | 53 | 1022.1 |
| 20260502162505 | 68 | 342 | 4.0 | 10.0 | 0.00 | 0.03 | 0.00 | 55 | 1022.2 |
| 20260502162405 | 69 | 340 | 4.0 | 10.0 | 0.00 | 0.03 | 0.00 | 55 | 1022.1 |
| 20260502162305 | 69 | 337 | 4.0 | 10.0 | 0.00 | 0.03 | 0.00 | 55 | 1022.2 |
| 20260502162204 | 69 | 333 | 5.0 | 11.0 | 0.00 | 0.03 | 0.00 | 54 | 1022.1 |
| 20260502162004 | 68 | 328 | 6.0 | 13.0 | 0.00 | 0.03 | 0.00 | 54 | 1022.1 |
| 20260502161805 | 68 | 328 | 7.0 | 14.0 | 0.00 | 0.03 | 0.00 | 54 | 1022.1 |
| 20260502161704 | 68 | 328 | 7.0 | 14.0 | 0.00 | 0.03 | 0.00 | 54 | 1022.1 |
| 20260502161606 | 68 | 327 | 7.0 | 14.0 | 0.00 | 0.03 | 0.00 | 54 | 1022.2 |
| 20260502161504 | 68 | 327 | 7.0 | 14.0 | 0.00 | 0.03 | 0.00 | 54 | 1022.2 |
| 20260502161405 | 68 | 330 | 7.0 | 14.0 | 0.00 | 0.03 | 0.00 | 55 | 1022.2 |
| 20260502161304 | 68 | 331 | 7.0 | 14.0 | 0.00 | 0.03 | 0.00 | 55 | 1022.1 |
| 20260502161204 | 68 | 331 | 6.0 | 14.0 | 0.00 | 0.03 | 0.00 | 55 | 1022.2 |
| 20260502161105 | 68 | 332 | 6.0 | 14.0 | 0.00 | 0.03 | 0.00 | 55 | 1022.1 |
| 20260502161005 | 68 | 332 | 6.0 | 14.0 | 0.00 | 0.03 | 0.00 | 55 | 1022.1 |
| 20260502160904 | 67 | 332 | 6.0 | 12.0 | 0.00 | 0.03 | 0.00 | 56 | 1022.1 |
| 20260502160805 | 67 | 332 | 6.0 | 12.0 | 0.00 | 0.03 | 0.00 | 55 | 1022.0 |
| 20260502160704 | 68 | 335 | 6.0 | 12.0 | 0.00 | 0.03 | 0.00 | 56 | 1022.1 |
| 20260502160605 | 67 | 340 | 6.0 | 12.0 | 0.00 | 0.03 | 0.00 | 56 | 1022.0 |
| 20260502160504 | 67 | 346 | 6.0 | 12.0 | 0.00 | 0.03 | 0.00 | 54 | 1022.1 |
| 20260502160405 | 67 | 344 | 6.0 | 12.0 | 0.00 | 0.03 | 0.00 | 54 | 1022.1 |
| 20260502160304 | 67 | 342 | 6.0 | 12.0 | 0.00 | 0.03 | 0.00 | 56 | 1022.1 |
| 20260502160205 | 67 | 341 | 7.0 | 12.0 | 0.00 | 0.03 | 0.00 | 56 | 1022.1 |
| 20260502160104 | 67 | 339 | 7.0 | 14.0 | 0.00 | 0.03 | 0.00 | 57 | 1022.0 |
| 20260502152204 | 65 | 312 | 3.0 | 7.0 | 0.00 | 0.03 | 0.00 | 60 | 1021.9 |
| 20260502152105 | 64 | 313 | 3.0 | 7.0 | 0.00 | 0.03 | 0.00 | 58 | 1021.9 |
| 20260502151904 | 64 | 311 | 3.0 | 7.0 | 0.00 | 0.03 | 0.00 | 56 | 1021.9 |
| 20260502151804 | 64 | 314 | 3.0 | 7.0 | 0.00 | 0.03 | 0.00 | 58 | 1021.9 |
| 20260502151504 | 64 | 319 | 2.0 | 7.0 | 0.00 | 0.04 | 0.00 | 57 | 1021.9 |
| 20260502151304 | 64 | 318 | 2.0 | 7.0 | 0.00 | 0.04 | 0.00 | 60 | 1021.9 |
| 20260502151204 | 64 | 314 | 2.0 | 7.0 | 0.00 | 0.04 | 0.00 | 60 | 1021.9 |
| 20260502151105 | 64 | 314 | 3.0 | 7.0 | 0.00 | 0.04 | 0.00 | 59 | 1022.0 |
| 20260502151004 | 64 | 317 | 3.0 | 7.0 | 0.00 | 0.04 | 0.00 | 60 | 1021.9 |
| 20260502150905 | 64 | 319 | 3.0 | 7.0 | 0.00 | 0.04 | 0.00 | 62 | 1022.0 |
| 20260502150805 | 64 | 315 | 3.0 | 7.0 | 0.00 | 0.04 | 0.00 | 60 | 1022.0 |
| 20260502150705 | 64 | 310 | 3.0 | 7.0 | 0.00 | 0.04 | 0.00 | 60 | 1021.9 |
| 20260502150606 | 64 | 309 | 3.0 | 7.0 | 0.00 | 0.04 | 0.00 | 61 | 1021.9 |
| 20260502150504 | 64 | 305 | 3.0 | 7.0 | 0.00 | 0.04 | 0.00 | 61 | 1021.9 |
| 20260502150404 | 64 | 303 | 4.0 | 7.0 | 0.00 | 0.04 | 0.00 | 61 | 1021.9 |
| 20260502150305 | 63 | 303 | 4.0 | 7.0 | 0.00 | 0.04 | 0.00 | 61 | 1021.9 |
| 20260502150204 | 63 | 303 | 4.0 | 6.0 | 0.00 | 0.04 | 0.00 | 60 | 1021.9 |
| 20260502140104 | 59 | 309 | 4.0 | 9.0 | 0.00 | 0.05 | 0.00 | 74 | 1021.6 |
| 20260502130704 | 54 | 305 | 4.0 | 9.0 | 0.00 | 0.07 | 0.00 | 83 | 1021.0 |
| 20260502130605 | 54 | 306 | 4.0 | 8.0 | 0.00 | 0.07 | 0.00 | 83 | 1021.0 |
| 20260502130504 | 53 | 306 | 4.0 | 7.0 | 0.00 | 0.07 | 0.00 | 83 | 1021.0 |
| 20260502130405 | 53 | 306 | 4.0 | 7.0 | 0.00 | 0.07 | 0.00 | 83 | 1021.0 |
| 20260502130304 | 53 | 306 | 4.0 | 7.0 | 0.00 | 0.07 | 0.00 | 83 | 1020.9 |
| 20260502130205 | 53 | 306 | 4.0 | 7.0 | 0.00 | 0.07 | 0.00 | 84 | 1020.9 |
| 20260502130104 | 53 | 307 | 4.0 | 7.0 | 0.00 | 0.07 | 0.00 | 84 | 1021.0 |
| 20260502123604 | 50 | 301 | 4.0 | 8.0 | 0.00 | 0.07 | 0.00 | 88 | 1020.6 |
| 20260502123404 | 50 | 298 | 4.0 | 7.0 | 0.00 | 0.07 | 0.00 | 89 | 1020.6 |
| 20260502123304 | 50 | 298 | 4.0 | 7.0 | 0.00 | 0.07 | 0.00 | 89 | 1020.6 |
| 20260502123004 | 50 | 294 | 4.0 | 7.0 | 0.00 | 0.07 | 0.00 | 89 | 1020.6 |
| 20260502122904 | 50 | 293 | 4.0 | 7.0 | 0.00 | 0.07 | 0.00 | 89 | 1020.5 |
| 20260502122804 | 50 | 292 | 4.0 | 7.0 | 0.00 | 0.07 | 0.00 | 89 | 1020.4 |
| 20260502122704 | 50 | 292 | 4.0 | 7.0 | 0.00 | 0.07 | 0.00 | 89 | 1020.4 |
| 20260502122604 | 50 | 292 | 4.0 | 8.0 | 0.00 | 0.07 | 0.00 | 89 | 1020.4 |
| 20260502122505 | 50 | 291 | 4.0 | 8.0 | 0.00 | 0.07 | 0.00 | 89 | 1020.4 |
| 20260502122405 | 49 | 291 | 5.0 | 8.0 | 0.00 | 0.07 | 0.00 | 89 | 1020.3 |
| 20260502122306 | 49 | 291 | 5.0 | 8.0 | 0.00 | 0.07 | 0.00 | 90 | 1020.3 |
| 20260502122205 | 49 | 291 | 5.0 | 8.0 | 0.00 | 0.07 | 0.00 | 90 | 1020.3 |
| 20260502122104 | 49 | 291 | 5.0 | 8.0 | 0.00 | 0.07 | 0.00 | 90 | 1020.2 |
| 20260502122005 | 49 | 291 | 5.0 | 8.0 | 0.00 | 0.07 | 0.00 | 90 | 1020.2 |
| 20260502121904 | 49 | 291 | 5.0 | 8.0 | 0.00 | 0.07 | 0.00 | 90 | 1020.2 |
| 20260502121805 | 49 | 291 | 5.0 | 8.0 | 0.00 | 0.07 | 0.00 | 90 | 1020.2 |
| 20260502121704 | 49 | 290 | 5.0 | 8.0 | 0.00 | 0.07 | 0.00 | 90 | 1020.2 |
| 20260502121604 | 49 | 290 | 5.0 | 8.0 | 0.00 | 0.07 | 0.00 | 90 | 1020.2 |
| 20260502121505 | 49 | 290 | 5.0 | 8.0 | 0.00 | 0.07 | 0.00 | 90 | 1020.2 |
| 20260502121404 | 49 | 291 | 4.0 | 8.0 | 0.00 | 0.08 | 0.00 | 90 | 1020.1 |
| 20260502121304 | 49 | 291 | 4.0 | 8.0 | 0.00 | 0.08 | 0.00 | 90 | 1020.1 |
| 20260502121204 | 49 | 290 | 4.0 | 8.0 | 0.00 | 0.08 | 0.00 | 90 | 1020.1 |
| 20260502121104 | 49 | 290 | 4.0 | 8.0 | 0.00 | 0.08 | 0.00 | 90 | 1020.0 |
| 20260502121005 | 49 | 291 | 4.0 | 8.0 | 0.00 | 0.08 | 0.00 | 90 | 1020.0 |
| 20260502120904 | 48 | 291 | 4.0 | 8.0 | 0.00 | 0.08 | 0.00 | 90 | 1020.0 |
| 20260502120805 | 48 | 291 | 4.0 | 8.0 | 0.00 | 0.08 | 0.00 | 90 | 1019.9 |
| 20260502120605 | 48 | 291 | 4.0 | 8.0 | 0.00 | 0.08 | 0.00 | 90 | 1019.9 |
| 20260502120505 | 48 | 291 | 4.0 | 7.0 | 0.00 | 0.08 | 0.00 | 90 | 1019.8 |
| 20260502120304 | 48 | 290 | 4.0 | 7.0 | 0.00 | 0.08 | 0.00 | 90 | 1019.8 |
| 20260502120205 | 48 | 289 | 4.0 | 7.0 | 0.00 | 0.08 | 0.00 | 90 | 1019.8 |
| 20260502120104 | 48 | 289 | 4.0 | 7.0 | 0.00 | 0.08 | 0.00 | 91 | 1019.7 |
| 20260502115904 | 48 | 287 | 4.0 | 7.0 | 0.00 | 0.08 | 0.00 | 90 | 1019.7 |
| 20260502115804 | 48 | 287 | 4.0 | 7.0 | 0.00 | 0.08 | 0.00 | 91 | 1019.7 |
| 20260502115705 | 48 | 287 | 4.0 | 6.0 | 0.00 | 0.08 | 0.00 | 91 | 1019.6 |
| 20260502115604 | 48 | 286 | 4.0 | 6.0 | 0.00 | 0.08 | 0.00 | 91 | 1019.6 |
| 20260502115505 | 48 | 285 | 4.0 | 6.0 | 0.00 | 0.08 | 0.00 | 91 | 1019.6 |
| 20260502115404 | 48 | 286 | 4.0 | 6.0 | 0.00 | 0.08 | 0.00 | 91 | 1019.6 |
| 20260502115306 | 48 | 286 | 4.0 | 6.0 | 0.00 | 0.08 | 0.00 | 91 | 1019.6 |
| 20260502115205 | 48 | 286 | 4.0 | 6.0 | 0.00 | 0.08 | 0.00 | 91 | 1019.6 |
| 20260502115104 | 48 | 287 | 4.0 | 5.0 | 0.00 | 0.08 | 0.00 | 91 | 1019.6 |
| 20260502115005 | 48 | 287 | 4.0 | 5.0 | 0.00 | 0.08 | 0.00 | 91 | 1019.5 |
| 20260502114904 | 48 | 287 | 4.0 | 5.0 | 0.00 | 0.08 | 0.00 | 91 | 1019.5 |
| 20260502114805 | 48 | 287 | 4.0 | 5.0 | 0.00 | 0.08 | 0.00 | 91 | 1019.5 |
| 20260502114605 | 48 | 287 | 4.0 | 5.0 | 0.00 | 0.08 | 0.00 | 91 | 1019.5 |
| 20260502114504 | 48 | 287 | 4.0 | 5.0 | 0.00 | 0.08 | 0.00 | 91 | 1019.5 |
| 20260502114404 | 48 | 288 | 4.0 | 5.0 | 0.00 | 0.08 | 0.00 | 91 | 1019.4 |
| 20260502114305 | 48 | 287 | 3.0 | 5.0 | 0.00 | 0.08 | 0.00 | 91 | 1019.5 |
| 20260502114104 | 48 | 286 | 3.0 | 5.0 | 0.00 | 0.08 | 0.00 | 91 | 1019.4 |
| 20260502114005 | 48 | 285 | 3.0 | 5.0 | 0.00 | 0.08 | 0.00 | 91 | 1019.4 |
| 20260502113905 | 48 | 285 | 3.0 | 5.0 | 0.00 | 0.08 | 0.00 | 91 | 1019.4 |
| 20260502113804 | 48 | 284 | 3.0 | 4.0 | 0.00 | 0.08 | 0.00 | 91 | 1019.4 |
| 20260502113605 | 48 | 285 | 3.0 | 4.0 | 0.00 | 0.08 | 0.00 | 91 | 1019.3 |
| 20260502113504 | 48 | 286 | 3.0 | 5.0 | 0.00 | 0.08 | 0.00 | 91 | 1019.3 |
| 20260502113405 | 48 | 286 | 3.0 | 5.0 | 0.00 | 0.08 | 0.00 | 91 | 1019.3 |
| 20260502113304 | 48 | 288 | 3.0 | 5.0 | 0.00 | 0.08 | 0.00 | 91 | 1019.4 |
| 20260502113204 | 48 | 288 | 3.0 | 5.0 | 0.00 | 0.08 | 0.00 | 91 | 1019.3 |
| 20260502113004 | 48 | 290 | 3.0 | 5.0 | 0.00 | 0.09 | 0.00 | 91 | 1019.3 |
| 20260502112804 | 48 | 292 | 3.0 | 5.0 | 0.00 | 0.09 | 0.00 | 91 | 1019.3 |
| 20260502112703 | 48 | 292 | 3.0 | 5.0 | 0.00 | 0.09 | 0.00 | 91 | 1019.2 |
| 20260502112604 | 48 | 293 | 3.0 | 5.0 | 0.00 | 0.09 | 0.00 | 91 | 1019.2 |
| 20260502112505 | 48 | 293 | 3.0 | 5.0 | 0.00 | 0.09 | 0.00 | 91 | 1019.2 |
| 20260502112405 | 48 | 293 | 3.0 | 5.0 | 0.00 | 0.09 | 0.00 | 91 | 1019.2 |
| 20260502112306 | 48 | 293 | 3.0 | 5.0 | 0.00 | 0.09 | 0.00 | 91 | 1019.2 |
| 20260502112205 | 48 | 293 | 3.0 | 4.0 | 0.00 | 0.09 | 0.00 | 91 | 1019.1 |
| 20260502112104 | 48 | 292 | 3.0 | 4.0 | 0.00 | 0.09 | 0.00 | 91 | 1019.1 |
| 20260502111904 | 48 | 291 | 3.0 | 4.0 | 0.00 | 0.09 | 0.00 | 91 | 1019.1 |
| 20260502111804 | 48 | 292 | 3.0 | 5.0 | 0.00 | 0.09 | 0.00 | 91 | 1019.1 |
| 20260502111604 | 48 | 292 | 3.0 | 5.0 | 0.00 | 0.09 | 0.00 | 91 | 1019.1 |
| 20260502111504 | 48 | 292 | 3.0 | 6.0 | 0.00 | 0.09 | 0.00 | 91 | 1019.0 |
| 20260502111405 | 48 | 292 | 4.0 | 6.0 | 0.00 | 0.09 | 0.00 | 91 | 1019.0 |
| 20260502111304 | 48 | 291 | 4.0 | 6.0 | 0.00 | 0.09 | 0.00 | 91 | 1019.0 |
| 20260502111205 | 48 | 292 | 4.0 | 6.0 | 0.00 | 0.09 | 0.00 | 91 | 1019.0 |
| 20260502111104 | 48 | 292 | 4.0 | 6.0 | 0.00 | 0.09 | 0.00 | 91 | 1019.0 |
| 20260502111005 | 48 | 292 | 4.0 | 6.0 | 0.00 | 0.09 | 0.00 | 91 | 1019.0 |
| 20260502110904 | 48 | 292 | 4.0 | 6.0 | 0.00 | 0.09 | 0.00 | 91 | 1018.9 |
| 20260502110805 | 48 | 291 | 4.0 | 6.0 | 0.00 | 0.09 | 0.00 | 91 | 1018.9 |
| 20260502110704 | 48 | 290 | 4.0 | 6.0 | 0.00 | 0.09 | 0.00 | 91 | 1018.8 |
| 20260502110604 | 48 | 291 | 3.0 | 6.0 | 0.00 | 0.09 | 0.00 | 91 | 1018.8 |
| 20260502110504 | 48 | 291 | 3.0 | 6.0 | 0.00 | 0.09 | 0.00 | 91 | 1018.8 |
| 20260502110404 | 48 | 292 | 3.0 | 5.0 | 0.00 | 0.09 | 0.00 | 91 | 1018.7 |
| 20260502110204 | 48 | 294 | 3.0 | 5.0 | 0.00 | 0.09 | 0.00 | 91 | 1018.7 |
| 20260502110005 | 48 | 296 | 3.0 | 5.0 | 0.00 | 0.09 | 0.00 | 91 | 1018.7 |
| 20260502105904 | 48 | 297 | 3.0 | 5.0 | 0.00 | 0.09 | 0.00 | 91 | 1018.7 |
| 20260502105805 | 48 | 298 | 3.0 | 5.0 | 0.00 | 0.09 | 0.00 | 91 | 1018.7 |
| 20260502105704 | 48 | 299 | 3.0 | 5.0 | 0.00 | 0.09 | 0.00 | 91 | 1018.7 |
| 20260502105604 | 48 | 299 | 3.0 | 5.0 | 0.00 | 0.09 | 0.00 | 91 | 1018.7 |
| 20260502105504 | 48 | 298 | 3.0 | 5.0 | 0.00 | 0.09 | 0.00 | 91 | 1018.6 |
| 20260502105405 | 48 | 298 | 3.0 | 5.0 | 0.00 | 0.09 | 0.00 | 91 | 1018.6 |
| 20260502105306 | 48 | 299 | 3.0 | 4.0 | 0.00 | 0.10 | 0.00 | 91 | 1018.6 |
| 20260502105204 | 48 | 299 | 3.0 | 4.0 | 0.00 | 0.10 | 0.00 | 91 | 1018.6 |
| 20260502105104 | 48 | 300 | 3.0 | 4.0 | 0.00 | 0.10 | 0.00 | 91 | 1018.6 |
| 20260502105004 | 48 | 300 | 3.0 | 4.0 | 0.00 | 0.10 | 0.00 | 91 | 1018.6 |
| 20260502104904 | 48 | 300 | 3.0 | 4.0 | 0.00 | 0.10 | 0.00 | 91 | 1018.6 |
| 20260502104804 | 48 | 300 | 3.0 | 4.0 | 0.00 | 0.10 | 0.00 | 91 | 1018.5 |
| 20260502104704 | 48 | 301 | 3.0 | 4.0 | 0.00 | 0.10 | 0.00 | 91 | 1018.5 |
| 20260502104604 | 48 | 301 | 3.0 | 4.0 | 0.00 | 0.10 | 0.00 | 91 | 1018.5 |
| 20260502104504 | 48 | 301 | 3.0 | 4.0 | 0.00 | 0.10 | 0.00 | 91 | 1018.5 |
| 20260502104405 | 48 | 302 | 3.0 | 4.0 | 0.00 | 0.10 | 0.00 | 91 | 1018.4 |
| 20260502104304 | 48 | 303 | 3.0 | 4.0 | 0.00 | 0.10 | 0.00 | 91 | 1018.4 |
| 20260502104205 | 48 | 305 | 2.0 | 4.0 | 0.00 | 0.10 | 0.00 | 91 | 1018.3 |
| 20260502104104 | 48 | 306 | 3.0 | 4.0 | 0.00 | 0.10 | 0.00 | 91 | 1018.3 |
| 20260502104004 | 48 | 307 | 3.0 | 4.0 | 0.00 | 0.10 | 0.00 | 91 | 1018.3 |
| 20260502103804 | 48 | 309 | 3.0 | 4.0 | 0.00 | 0.10 | 0.00 | 91 | 1018.3 |
| 20260502103604 | 48 | 312 | 3.0 | 4.0 | 0.00 | 0.10 | 0.00 | 91 | 1018.3 |
| 20260502103504 | 48 | 314 | 3.0 | 4.0 | 0.00 | 0.10 | 0.00 | 91 | 1018.3 |
| 20260502103404 | 48 | 314 | 3.0 | 4.0 | 0.00 | 0.10 | 0.00 | 91 | 1018.2 |
| 20260502103304 | 48 | 314 | 3.0 | 4.0 | 0.00 | 0.10 | 0.00 | 91 | 1018.3 |
| 20260502103104 | 48 | 313 | 3.0 | 4.0 | 0.00 | 0.10 | 0.00 | 91 | 1018.2 |
| 20260502103004 | 48 | 314 | 3.0 | 4.0 | 0.00 | 0.10 | 0.00 | 91 | 1018.2 |
| 20260502102904 | 48 | 314 | 3.0 | 4.0 | 0.00 | 0.10 | 0.00 | 91 | 1018.2 |
| 20260502102804 | 48 | 314 | 3.0 | 4.0 | 0.00 | 0.10 | 0.00 | 91 | 1018.1 |
| 20260502102704 | 48 | 313 | 3.0 | 4.0 | 0.00 | 0.10 | 0.00 | 91 | 1018.2 |
| 20260502102504 | 48 | 313 | 3.0 | 4.0 | 0.00 | 0.10 | 0.00 | 91 | 1018.1 |
| 20260502102404 | 48 | 313 | 3.0 | 4.0 | 0.00 | 0.10 | 0.00 | 91 | 1018.1 |
| 20260502102306 | 48 | 314 | 3.0 | 4.0 | 0.00 | 0.10 | 0.00 | 91 | 1018.0 |
| 20260502102204 | 48 | 315 | 3.0 | 4.0 | 0.00 | 0.10 | 0.00 | 91 | 1018.0 |
| 20260502102104 | 48 | 315 | 3.0 | 4.0 | 0.00 | 0.10 | 0.00 | 91 | 1018.1 |
| 20260502102004 | 48 | 315 | 3.0 | 4.0 | 0.00 | 0.10 | 0.00 | 91 | 1018.0 |
| 20260502101904 | 48 | 315 | 3.0 | 4.0 | 0.00 | 0.10 | 0.00 | 91 | 1018.0 |
| 20260502101804 | 48 | 313 | 3.0 | 4.0 | 0.00 | 0.10 | 0.00 | 91 | 1018.0 |
| 20260502101704 | 48 | 311 | 3.0 | 4.0 | 0.00 | 0.10 | 0.00 | 91 | 1018.0 |
| 20260502101504 | 48 | 307 | 3.0 | 4.0 | 0.00 | 0.10 | 0.00 | 90 | 1018.0 |
| 20260502101404 | 48 | 305 | 3.0 | 4.0 | 0.00 | 0.10 | 0.00 | 90 | 1018.0 |
| 20260502101304 | 48 | 302 | 3.0 | 4.0 | 0.00 | 0.10 | 0.00 | 90 | 1018.1 |
| 20260502101204 | 48 | 300 | 3.0 | 4.0 | 0.00 | 0.10 | 0.00 | 90 | 1018.0 |
| 20260502101104 | 48 | 297 | 3.0 | 4.0 | 0.00 | 0.10 | 0.00 | 90 | 1018.0 |
| 20260502101004 | 48 | 295 | 3.0 | 4.0 | 0.00 | 0.10 | 0.00 | 90 | 1018.0 |
| 20260502100805 | 49 | 294 | 3.0 | 5.0 | 0.00 | 0.11 | 0.00 | 90 | 1018.0 |
| 20260502100704 | 49 | 294 | 3.0 | 5.0 | 0.00 | 0.11 | 0.00 | 90 | 1018.0 |
| 20260502100604 | 49 | 295 | 3.0 | 5.0 | 0.00 | 0.11 | 0.00 | 90 | 1018.0 |
| 20260502100504 | 49 | 296 | 3.0 | 5.0 | 0.00 | 0.11 | 0.00 | 90 | 1018.0 |
| 20260502100404 | 49 | 297 | 3.0 | 5.0 | 0.00 | 0.11 | 0.00 | 90 | 1018.0 |
| 20260502100304 | 49 | 297 | 3.0 | 5.0 | 0.00 | 0.11 | 0.00 | 90 | 1018.0 |
| 20260502100204 | 49 | 297 | 3.0 | 5.0 | 0.00 | 0.11 | 0.00 | 90 | 1018.0 |
| 20260502100105 | 49 | 297 | 3.0 | 5.0 | 0.00 | 0.11 | 0.00 | 90 | 1018.0 |
| 20260502091503 | 50 | 328 | 3.0 | 7.0 | 0.00 | 0.12 | 0.00 | 89 | 1018.1 |
| 20260502091004 | 50 | 324 | 4.0 | 7.0 | 0.00 | 0.12 | 0.00 | 89 | 1018.1 |
| 20260502090904 | 50 | 322 | 4.0 | 7.0 | 0.00 | 0.12 | 0.00 | 89 | 1018.1 |
| 20260502090804 | 50 | 321 | 4.0 | 7.0 | 0.00 | 0.12 | 0.00 | 89 | 1018.1 |
| 20260502090605 | 50 | 318 | 4.0 | 8.0 | 0.00 | 0.12 | 0.00 | 89 | 1018.2 |
| 20260502090504 | 50 | 317 | 4.0 | 8.0 | 0.00 | 0.12 | 0.00 | 89 | 1018.1 |
| 20260502090405 | 50 | 316 | 4.0 | 8.0 | 0.00 | 0.12 | 0.00 | 89 | 1018.2 |
| 20260502090304 | 50 | 314 | 4.0 | 8.0 | 0.00 | 0.12 | 0.00 | 89 | 1018.2 |
| 20260502080103 | 50 | 330 | 3.0 | 7.0 | 0.00 | 0.14 | 0.00 | 87 | 1017.7 |
| 20260502071504 | 51 | 326 | 4.0 | 8.0 | 0.00 | 0.15 | 0.00 | 87 | 1018.0 |
| 20260502071404 | 51 | 327 | 4.0 | 8.0 | 0.00 | 0.15 | 0.00 | 87 | 1017.9 |
| 20260502071304 | 51 | 329 | 3.0 | 8.0 | 0.00 | 0.15 | 0.00 | 87 | 1017.9 |
| 20260502071205 | 51 | 329 | 3.0 | 8.0 | 0.00 | 0.15 | 0.00 | 87 | 1017.9 |
| 20260502071103 | 51 | 331 | 3.0 | 8.0 | 0.00 | 0.15 | 0.00 | 87 | 1017.9 |
| 20260502071004 | 51 | 333 | 3.0 | 8.0 | 0.00 | 0.15 | 0.00 | 87 | 1017.9 |
| 20260502070903 | 51 | 334 | 3.0 | 8.0 | 0.00 | 0.15 | 0.00 | 87 | 1017.9 |
| 20260502070805 | 51 | 337 | 3.0 | 8.0 | 0.00 | 0.15 | 0.00 | 87 | 1017.9 |
| 20260502070704 | 51 | 341 | 3.0 | 6.0 | 0.00 | 0.15 | 0.00 | 87 | 1017.9 |
| 20260502070504 | 51 | 347 | 2.0 | 6.0 | 0.00 | 0.15 | 0.00 | 87 | 1017.8 |
| 20260502070404 | 51 | 350 | 2.0 | 5.0 | 0.00 | 0.15 | 0.00 | 87 | 1017.8 |
| 20260502070304 | 51 | 351 | 2.0 | 5.0 | 0.00 | 0.15 | 0.00 | 86 | 1017.8 |
| 20260502070204 | 51 | 351 | 3.0 | 5.0 | 0.00 | 0.15 | 0.00 | 86 | 1017.8 |
| 20260502070004 | 51 | 352 | 3.0 | 7.0 | 0.00 | 0.15 | 0.00 | 87 | 1017.8 |
| 20260502065804 | 51 | 352 | 3.0 | 7.0 | 0.00 | 0.15 | 0.00 | 86 | 1017.9 |
| 20260502065703 | 51 | 351 | 3.0 | 7.0 | 0.00 | 0.15 | 0.00 | 86 | 1017.9 |
| 20260502065604 | 51 | 352 | 3.0 | 7.0 | 0.00 | 0.15 | 0.00 | 86 | 1017.9 |
| 20260502065504 | 51 | 351 | 3.0 | 7.0 | 0.00 | 0.15 | 0.00 | 86 | 1017.9 |
| 20260502065306 | 51 | 349 | 3.0 | 7.0 | 0.00 | 0.15 | 0.00 | 86 | 1017.9 |
| 20260502065204 | 51 | 350 | 3.0 | 7.0 | 0.00 | 0.15 | 0.00 | 86 | 1017.9 |
| 20260502065104 | 51 | 350 | 3.0 | 7.0 | 0.00 | 0.15 | 0.00 | 86 | 1017.9 |
| 20260502065004 | 51 | 351 | 3.0 | 7.0 | 0.00 | 0.15 | 0.00 | 86 | 1017.9 |
| 20260502064904 | 51 | 351 | 3.0 | 7.0 | 0.00 | 0.15 | 0.00 | 86 | 1017.9 |
| 20260502064804 | 51 | 352 | 3.0 | 7.0 | 0.00 | 0.15 | 0.00 | 86 | 1017.9 |
| 20260502064704 | 51 | 352 | 3.0 | 7.0 | 0.00 | 0.15 | 0.00 | 86 | 1017.8 |
| 20260502064603 | 51 | 351 | 3.0 | 7.0 | 0.00 | 0.15 | 0.00 | 86 | 1017.8 |
| 20260502064504 | 51 | 352 | 3.0 | 7.0 | 0.00 | 0.15 | 0.00 | 86 | 1017.8 |
| 20260502064304 | 51 | 353 | 3.0 | 7.0 | 0.00 | 0.15 | 0.00 | 86 | 1017.8 |
| 20260502064204 | 51 | 354 | 3.0 | 7.0 | 0.00 | 0.15 | 0.00 | 86 | 1017.8 |
| 20260502064104 | 51 | 355 | 3.0 | 5.0 | 0.00 | 0.15 | 0.00 | 86 | 1017.8 |
| 20260502064004 | 51 | 356 | 3.0 | 7.0 | 0.00 | 0.15 | 0.00 | 86 | 1017.8 |
| 20260502063804 | 51 | 355 | 3.0 | 7.0 | 0.00 | 0.15 | 0.00 | 86 | 1017.8 |
| 20260502063604 | 51 | 357 | 3.0 | 7.0 | 0.00 | 0.15 | 0.00 | 86 | 1017.8 |
| 20260502063504 | 51 | 358 | 3.0 | 7.0 | 0.00 | 0.15 | 0.00 | 86 | 1017.8 |
| 20260502063403 | 51 | 359 | 3.0 | 7.0 | 0.00 | 0.15 | 0.00 | 86 | 1017.8 |
| 20260502063304 | 51 | 359 | 3.0 | 7.0 | 0.00 | 0.15 | 0.00 | 86 | 1017.8 |
| 20260502063203 | 51 | 358 | 3.0 | 7.0 | 0.00 | 0.15 | 0.00 | 86 | 1017.8 |
| 20260502063104 | 51 | 354 | 3.0 | 7.0 | 0.00 | 0.15 | 0.00 | 87 | 1017.8 |
| 20260502062804 | 51 | 348 | 3.0 | 7.0 | 0.00 | 0.15 | 0.00 | 87 | 1017.8 |
| 20260502062703 | 51 | 347 | 3.0 | 7.0 | 0.00 | 0.15 | 0.00 | 87 | 1017.8 |
| 20260502062604 | 51 | 345 | 3.0 | 7.0 | 0.00 | 0.15 | 0.00 | 87 | 1017.8 |
| 20260502062503 | 51 | 343 | 3.0 | 7.0 | 0.00 | 0.15 | 0.00 | 87 | 1017.9 |
| 20260502062306 | 51 | 338 | 3.0 | 7.0 | 0.00 | 0.15 | 0.00 | 87 | 1017.9 |
| 20260502061903 | 51 | 336 | 3.0 | 6.0 | 0.00 | 0.15 | 0.00 | 87 | 1017.9 |
| 20260502061804 | 51 | 336 | 3.0 | 6.0 | 0.00 | 0.15 | 0.00 | 87 | 1017.9 |
| 20260502061703 | 51 | 335 | 3.0 | 6.0 | 0.00 | 0.15 | 0.00 | 87 | 1017.9 |
| 20260502061604 | 51 | 336 | 3.0 | 5.0 | 0.00 | 0.15 | 0.00 | 87 | 1018.0 |
| 20260502061404 | 51 | 337 | 3.0 | 5.0 | 0.00 | 0.15 | 0.00 | 87 | 1018.0 |
| 20260502061304 | 51 | 339 | 3.0 | 5.0 | 0.00 | 0.15 | 0.00 | 87 | 1017.9 |
| 20260502061203 | 51 | 339 | 3.0 | 5.0 | 0.00 | 0.15 | 0.00 | 87 | 1018.0 |
| 20260502061104 | 51 | 340 | 3.0 | 5.0 | 0.00 | 0.15 | 0.00 | 87 | 1018.0 |
| 20260502061004 | 51 | 341 | 3.0 | 5.0 | 0.00 | 0.15 | 0.00 | 87 | 1018.0 |
| 20260502060604 | 52 | 342 | 2.0 | 4.0 | 0.00 | 0.16 | 0.00 | 87 | 1017.9 |
| 20260502060404 | 52 | 344 | 2.0 | 4.0 | 0.00 | 0.16 | 0.00 | 86 | 1017.9 |
| 20260502060304 | 52 | 345 | 2.0 | 4.0 | 0.00 | 0.16 | 0.00 | 86 | 1018.0 |
| 20260502060204 | 52 | 346 | 2.0 | 4.0 | 0.00 | 0.16 | 0.00 | 86 | 1018.0 |
| 20260502060104 | 52 | 348 | 2.0 | 4.0 | 0.00 | 0.16 | 0.00 | 86 | 1018.0 |
| 20260502060004 | 52 | 349 | 2.0 | 4.0 | 0.00 | 0.16 | 0.00 | 86 | 1018.0 |
| 20260502055904 | 52 | 350 | 2.0 | 4.0 | 0.00 | 0.16 | 0.00 | 86 | 1018.0 |
| 20260502055804 | 52 | 349 | 2.0 | 4.0 | 0.00 | 0.16 | 0.00 | 86 | 1018.0 |
| 20260502055704 | 52 | 348 | 2.0 | 4.0 | 0.00 | 0.16 | 0.00 | 86 | 1018.0 |
| 20260502055503 | 52 | 349 | 2.0 | 4.0 | 0.00 | 0.16 | 0.00 | 86 | 1018.0 |
| 20260502055404 | 52 | 350 | 2.0 | 4.0 | 0.00 | 0.16 | 0.00 | 86 | 1018.0 |
| 20260502055305 | 52 | 352 | 2.0 | 4.0 | 0.00 | 0.16 | 0.00 | 86 | 1018.0 |
| 20260502055204 | 52 | 353 | 2.0 | 4.0 | 0.00 | 0.16 | 0.00 | 86 | 1017.9 |
| 20260502055103 | 52 | 355 | 2.0 | 4.0 | 0.00 | 0.16 | 0.00 | 86 | 1018.0 |
| 20260502055004 | 52 | 356 | 2.0 | 4.0 | 0.00 | 0.16 | 0.00 | 86 | 1018.0 |
| 20260502054903 | 52 | 358 | 2.0 | 4.0 | 0.00 | 0.16 | 0.00 | 86 | 1017.9 |
| 20260502054804 | 52 | 2 | 2.0 | 4.0 | 0.00 | 0.16 | 0.00 | 86 | 1017.9 |
| 20260502054604 | 52 | 7 | 2.0 | 5.0 | 0.00 | 0.17 | 0.00 | 86 | 1017.9 |
| 20260502054504 | 52 | 8 | 2.0 | 5.0 | 0.00 | 0.17 | 0.00 | 86 | 1017.9 |
| 20260502054304 | 52 | 9 | 2.0 | 5.0 | 0.00 | 0.17 | 0.00 | 86 | 1017.8 |
| 20260502054204 | 52 | 9 | 2.0 | 5.0 | 0.00 | 0.17 | 0.00 | 86 | 1017.9 |
| 20260502054104 | 52 | 10 | 2.0 | 5.0 | 0.00 | 0.17 | 0.00 | 86 | 1017.9 |
| 20260502054004 | 52 | 11 | 2.0 | 5.0 | 0.00 | 0.17 | 0.00 | 86 | 1017.8 |
| 20260502053904 | 52 | 12 | 2.0 | 5.0 | 0.00 | 0.17 | 0.00 | 86 | 1017.8 |
| 20260502053804 | 52 | 13 | 2.0 | 5.0 | 0.00 | 0.17 | 0.00 | 86 | 1017.8 |
| 20260502053504 | 52 | 19 | 2.0 | 4.0 | 0.00 | 0.17 | 0.00 | 86 | 1017.8 |
| 20260502053405 | 52 | 20 | 2.0 | 4.0 | 0.00 | 0.17 | 0.00 | 86 | 1017.8 |
| 20260502053303 | 52 | 23 | 2.0 | 4.0 | 0.00 | 0.17 | 0.00 | 86 | 1017.8 |
| 20260502053204 | 52 | 23 | 2.0 | 4.0 | 0.00 | 0.17 | 0.00 | 86 | 1017.8 |
| 20260502053103 | 52 | 21 | 2.0 | 7.0 | 0.00 | 0.17 | 0.00 | 86 | 1017.8 |
| 20260502053004 | 52 | 19 | 2.0 | 7.0 | 0.00 | 0.17 | 0.00 | 86 | 1017.7 |
| 20260502052804 | 52 | 18 | 2.0 | 7.0 | 0.00 | 0.18 | 0.00 | 86 | 1017.7 |
| 20260502052704 | 52 | 18 | 2.0 | 7.0 | 0.00 | 0.18 | 0.00 | 86 | 1017.7 |
| 20260502052604 | 52 | 16 | 2.0 | 7.0 | 0.00 | 0.18 | 0.00 | 86 | 1017.7 |
| 20260502052504 | 52 | 12 | 2.0 | 7.0 | 0.00 | 0.18 | 0.00 | 86 | 1017.7 |
| 20260502052404 | 52 | 10 | 2.0 | 7.0 | 0.00 | 0.18 | 0.00 | 86 | 1017.8 |
| 20260502052306 | 53 | 6 | 2.0 | 7.0 | 0.00 | 0.18 | 0.00 | 86 | 1017.7 |
| 20260502052204 | 53 | 6 | 2.0 | 7.0 | 0.00 | 0.18 | 0.00 | 86 | 1017.7 |
| 20260502052004 | 53 | 6 | 3.0 | 4.0 | 0.00 | 0.18 | 0.00 | 86 | 1017.8 |
| 20260502051904 | 53 | 5 | 3.0 | 8.0 | 0.00 | 0.18 | 0.00 | 86 | 1017.8 |
| 20260502051704 | 53 | 3 | 3.0 | 8.0 | 0.00 | 0.18 | 0.00 | 86 | 1017.8 |
| 20260502051504 | 53 | 3 | 3.0 | 8.0 | 0.00 | 0.18 | 0.00 | 86 | 1017.7 |
| 20260502051404 | 53 | 2 | 3.0 | 8.0 | 0.00 | 0.18 | 0.00 | 86 | 1017.7 |
| 20260502051304 | 53 | 1 | 3.0 | 11.0 | 0.00 | 0.18 | 0.00 | 86 | 1017.7 |
| 20260502051104 | 53 | 2 | 4.0 | 11.0 | 0.00 | 0.18 | 0.00 | 86 | 1017.7 |
| 20260502051004 | 53 | 1 | 4.0 | 11.0 | 0.00 | 0.18 | 0.00 | 86 | 1017.7 |
| 20260502050804 | 53 | 358 | 4.0 | 11.0 | 0.00 | 0.18 | 0.00 | 86 | 1017.7 |
| 20260502050704 | 53 | 359 | 4.0 | 11.0 | 0.00 | 0.18 | 0.00 | 86 | 1017.7 |
| 20260502050604 | 53 | 359 | 4.0 | 11.0 | 0.00 | 0.18 | 0.00 | 86 | 1017.7 |
| 20260502050504 | 53 | 358 | 4.0 | 11.0 | 0.00 | 0.18 | 0.00 | 86 | 1017.7 |
| 20260502050404 | 53 | 358 | 3.0 | 11.0 | 0.00 | 0.18 | 0.00 | 86 | 1017.7 |
| 20260502050303 | 53 | 358 | 3.0 | 8.0 | 0.00 | 0.18 | 0.00 | 86 | 1017.7 |
| 20260502050204 | 53 | 357 | 3.0 | 8.0 | 0.00 | 0.18 | 0.00 | 86 | 1017.6 |
| 20260502050005 | 53 | 359 | 3.0 | 7.0 | 0.00 | 0.18 | 0.00 | 87 | 1017.7 |
| 20260502045904 | 53 | 358 | 3.0 | 7.0 | 0.00 | 0.18 | 0.18 | 87 | 1017.7 |
| 20260502045803 | 53 | 359 | 3.0 | 6.0 | 0.00 | 0.18 | 0.18 | 87 | 1017.7 |
| 20260502045704 | 53 | 358 | 3.0 | 6.0 | 0.00 | 0.18 | 0.18 | 87 | 1017.7 |
| 20260502045604 | 53 | 358 | 3.0 | 6.0 | 0.00 | 0.18 | 0.18 | 87 | 1017.7 |
| 20260502045504 | 53 | 358 | 3.0 | 6.0 | 0.00 | 0.18 | 0.18 | 87 | 1017.7 |
| 20260502045404 | 53 | 357 | 3.0 | 6.0 | 0.00 | 0.18 | 0.18 | 87 | 1017.6 |
| 20260502045306 | 53 | 359 | 3.0 | 6.0 | 0.00 | 0.18 | 0.18 | 87 | 1017.6 |
| 20260502045104 | 53 | 358 | 3.0 | 6.0 | 0.00 | 0.18 | 0.18 | 87 | 1017.6 |
| 20260502044904 | 53 | 357 | 3.0 | 6.0 | 0.00 | 0.18 | 0.18 | 87 | 1017.6 |
| 20260502044804 | 53 | 358 | 3.0 | 6.0 | 0.00 | 0.18 | 0.18 | 87 | 1017.6 |
| 20260502044704 | 53 | 357 | 3.0 | 6.0 | 0.00 | 0.18 | 0.18 | 87 | 1017.6 |
| 20260502044504 | 53 | 356 | 3.0 | 6.0 | 0.00 | 0.18 | 0.18 | 87 | 1017.6 |
| 20260502044404 | 53 | 356 | 2.0 | 5.0 | 0.00 | 0.18 | 0.18 | 87 | 1017.6 |
| 20260502044104 | 53 | 358 | 2.0 | 4.0 | 0.00 | 0.18 | 0.18 | 87 | 1017.6 |
| 20260502044004 | 53 | 357 | 2.0 | 4.0 | 0.00 | 0.18 | 0.18 | 87 | 1017.6 |
| 20260502043804 | 53 | 355 | 2.0 | 4.0 | 0.00 | 0.18 | 0.18 | 86 | 1017.5 |
| 20260502043503 | 53 | 353 | 2.0 | 4.0 | 0.00 | 0.18 | 0.18 | 87 | 1017.5 |
| 20260502043204 | 53 | 352 | 2.0 | 4.0 | 0.00 | 0.18 | 0.18 | 86 | 1017.5 |
| 20260502043104 | 53 | 349 | 2.0 | 4.0 | 0.00 | 0.18 | 0.18 | 86 | 1017.5 |
| 20260502043004 | 53 | 348 | 2.0 | 4.0 | 0.00 | 0.18 | 0.18 | 86 | 1017.5 |
| 20260502042903 | 53 | 349 | 2.0 | 4.0 | 0.00 | 0.18 | 0.18 | 86 | 1017.6 |
| 20260502042804 | 54 | 349 | 2.0 | 4.0 | 0.00 | 0.18 | 0.18 | 86 | 1017.6 |
| 20260502042703 | 54 | 350 | 2.0 | 4.0 | 0.00 | 0.18 | 0.18 | 86 | 1017.6 |
| 20260502042604 | 54 | 350 | 2.0 | 4.0 | 0.00 | 0.18 | 0.18 | 86 | 1017.7 |
| 20260502042503 | 54 | 350 | 2.0 | 4.0 | 0.00 | 0.18 | 0.18 | 86 | 1017.6 |
| 20260502042404 | 54 | 350 | 2.0 | 4.0 | 0.00 | 0.18 | 0.18 | 86 | 1017.6 |
| 20260502042306 | 54 | 349 | 2.0 | 4.0 | 0.00 | 0.18 | 0.18 | 86 | 1017.6 |
| 20260502042204 | 54 | 349 | 2.0 | 5.0 | 0.00 | 0.18 | 0.18 | 86 | 1017.6 |
| 20260502042104 | 54 | 349 | 2.0 | 5.0 | 0.00 | 0.18 | 0.18 | 86 | 1017.6 |
| 20260502042004 | 54 | 350 | 2.0 | 5.0 | 0.00 | 0.18 | 0.18 | 86 | 1017.6 |
| 20260502041904 | 54 | 349 | 3.0 | 5.0 | 0.00 | 0.18 | 0.18 | 86 | 1017.6 |
| 20260502041804 | 54 | 349 | 3.0 | 5.0 | 0.00 | 0.18 | 0.18 | 86 | 1017.6 |
| 20260502041704 | 54 | 349 | 3.0 | 5.0 | 0.00 | 0.18 | 0.18 | 86 | 1017.6 |
| 20260502041405 | 54 | 350 | 2.0 | 5.0 | 0.00 | 0.18 | 0.18 | 85 | 1017.6 |
| 20260502041303 | 54 | 350 | 2.0 | 5.0 | 0.00 | 0.18 | 0.18 | 85 | 1017.6 |
| 20260502041103 | 54 | 350 | 2.0 | 5.0 | 0.00 | 0.18 | 0.18 | 85 | 1017.7 |
| 20260502041004 | 54 | 350 | 2.0 | 5.0 | 0.00 | 0.18 | 0.18 | 85 | 1017.6 |
| 20260502040903 | 54 | 351 | 2.0 | 5.0 | 0.00 | 0.18 | 0.18 | 85 | 1017.6 |
| 20260502040804 | 54 | 351 | 2.0 | 4.0 | 0.00 | 0.18 | 0.18 | 85 | 1017.6 |
| 20260502040703 | 54 | 351 | 2.0 | 4.0 | 0.00 | 0.18 | 0.18 | 85 | 1017.6 |
| 20260502040503 | 54 | 351 | 2.0 | 4.0 | 0.00 | 0.18 | 0.18 | 85 | 1017.5 |
| 20260502040404 | 54 | 351 | 2.0 | 4.0 | 0.00 | 0.18 | 0.18 | 85 | 1017.5 |
| 20260502040303 | 54 | 352 | 2.0 | 4.0 | 0.00 | 0.18 | 0.18 | 85 | 1017.5 |
| 20260502040204 | 55 | 354 | 2.0 | 4.0 | 0.00 | 0.18 | 0.18 | 84 | 1017.6 |
| 20260502040104 | 55 | 357 | 2.0 | 4.0 | 0.00 | 0.18 | 0.18 | 84 | 1017.6 |
| 20260502040004 | 55 | 1 | 2.0 | 4.0 | 0.00 | 0.18 | 0.18 | 84 | 1017.6 |
| 20260502035903 | 55 | 3 | 2.0 | 4.0 | 0.00 | 0.18 | 0.18 | 84 | 1017.6 |
| 20260502035804 | 55 | 5 | 2.0 | 4.0 | 0.00 | 0.18 | 0.18 | 84 | 1017.5 |
| 20260502035703 | 55 | 6 | 2.0 | 5.0 | 0.00 | 0.18 | 0.18 | 84 | 1017.5 |
| 20260502035604 | 55 | 8 | 2.0 | 5.0 | 0.00 | 0.18 | 0.18 | 84 | 1017.5 |
| 20260502035404 | 55 | 10 | 2.0 | 5.0 | 0.00 | 0.18 | 0.18 | 84 | 1017.4 |
| 20260502035306 | 55 | 10 | 2.0 | 5.0 | 0.00 | 0.18 | 0.18 | 84 | 1017.5 |
| 20260502035204 | 55 | 7 | 2.0 | 5.0 | 0.00 | 0.18 | 0.18 | 84 | 1017.5 |
| 20260502035103 | 55 | 4 | 2.0 | 6.0 | 0.00 | 0.18 | 0.18 | 84 | 1017.5 |
| 20260502035004 | 55 | 1 | 2.0 | 6.0 | 0.00 | 0.18 | 0.18 | 84 | 1017.5 |
| 20260502034903 | 55 | 359 | 2.0 | 6.0 | 0.00 | 0.18 | 0.18 | 84 | 1017.5 |
| 20260502034804 | 55 | 358 | 2.0 | 6.0 | 0.00 | 0.18 | 0.18 | 84 | 1017.5 |
| 20260502034703 | 55 | 357 | 2.0 | 6.0 | 0.00 | 0.18 | 0.18 | 84 | 1017.5 |
| 20260502034503 | 55 | 355 | 2.0 | 6.0 | 0.00 | 0.18 | 0.18 | 84 | 1017.5 |
| 20260502034404 | 55 | 355 | 2.0 | 6.0 | 0.00 | 0.18 | 0.18 | 84 | 1017.5 |
| 20260502034304 | 55 | 357 | 2.0 | 6.0 | 0.00 | 0.18 | 0.18 | 84 | 1017.5 |
| 20260502034204 | 55 | 357 | 2.0 | 6.0 | 0.00 | 0.18 | 0.18 | 84 | 1017.5 |
| 20260502034103 | 55 | 357 | 3.0 | 5.0 | 0.00 | 0.18 | 0.18 | 84 | 1017.6 |
| 20260502034004 | 55 | 356 | 3.0 | 5.0 | 0.00 | 0.18 | 0.18 | 84 | 1017.6 |
| 20260502033903 | 55 | 356 | 3.0 | 5.0 | 0.00 | 0.18 | 0.18 | 84 | 1017.6 |
| 20260502033804 | 55 | 355 | 3.0 | 5.0 | 0.00 | 0.18 | 0.18 | 84 | 1017.6 |
| 20260502033603 | 55 | 353 | 3.0 | 5.0 | 0.00 | 0.18 | 0.18 | 83 | 1017.6 |
| 20260502033504 | 55 | 351 | 3.0 | 6.0 | 0.00 | 0.18 | 0.18 | 83 | 1017.5 |
| 20260502033404 | 55 | 352 | 3.0 | 6.0 | 0.00 | 0.18 | 0.18 | 83 | 1017.5 |
| 20260502033203 | 55 | 352 | 3.0 | 6.0 | 0.00 | 0.18 | 0.18 | 84 | 1017.5 |
| 20260502033104 | 55 | 354 | 3.0 | 6.0 | 0.00 | 0.18 | 0.18 | 84 | 1017.5 |
| 20260502032905 | 55 | 352 | 3.0 | 6.0 | 0.00 | 0.18 | 0.18 | 84 | 1017.5 |
| 20260502032703 | 55 | 352 | 3.0 | 6.0 | 0.00 | 0.18 | 0.18 | 84 | 1017.5 |
| 20260502032605 | 55 | 353 | 3.0 | 6.0 | 0.00 | 0.18 | 0.18 | 84 | 1017.5 |
| 20260502032503 | 55 | 351 | 3.0 | 6.0 | 0.00 | 0.18 | 0.18 | 84 | 1017.5 |
| 20260502032404 | 55 | 349 | 3.0 | 6.0 | 0.00 | 0.18 | 0.18 | 84 | 1017.4 |
| 20260502032305 | 55 | 347 | 3.0 | 6.0 | 0.00 | 0.18 | 0.18 | 84 | 1017.5 |
| 20260502032204 | 55 | 344 | 3.0 | 6.0 | 0.00 | 0.18 | 0.18 | 84 | 1017.5 |
| 20260502032103 | 55 | 342 | 3.0 | 6.0 | 0.00 | 0.18 | 0.18 | 84 | 1017.4 |
| 20260502032004 | 55 | 343 | 3.0 | 6.0 | 0.00 | 0.18 | 0.18 | 85 | 1017.5 |
| 20260502031903 | 55 | 343 | 3.0 | 6.0 | 0.00 | 0.18 | 0.18 | 85 | 1017.5 |
| 20260502031703 | 55 | 344 | 3.0 | 6.0 | 0.00 | 0.18 | 0.18 | 85 | 1017.5 |
| 20260502031504 | 55 | 348 | 2.0 | 5.0 | 0.00 | 0.18 | 0.18 | 85 | 1017.5 |
| 20260502031404 | 55 | 349 | 2.0 | 5.0 | 0.00 | 0.18 | 0.18 | 85 | 1017.5 |
| 20260502031305 | 55 | 350 | 2.0 | 5.0 | 0.00 | 0.18 | 0.18 | 85 | 1017.5 |
| 20260502031204 | 55 | 351 | 2.0 | 6.0 | 0.00 | 0.18 | 0.18 | 85 | 1017.5 |
| 20260502031106 | 55 | 351 | 2.0 | 6.0 | 0.00 | 0.18 | 0.18 | 84 | 1017.4 |
| 20260502031005 | 55 | 353 | 3.0 | 6.0 | 0.00 | 0.18 | 0.18 | 84 | 1017.4 |
| 20260502030905 | 55 | 352 | 3.0 | 6.0 | 0.00 | 0.18 | 0.18 | 84 | 1017.4 |
| 20260502030805 | 55 | 353 | 3.0 | 6.0 | 0.00 | 0.18 | 0.18 | 84 | 1017.3 |
| 20260502030704 | 55 | 354 | 3.0 | 6.0 | 0.00 | 0.18 | 0.18 | 84 | 1017.3 |
| 20260502030606 | 55 | 354 | 3.0 | 7.0 | 0.00 | 0.18 | 0.18 | 84 | 1017.3 |
| 20260502030504 | 55 | 354 | 3.0 | 7.0 | 0.00 | 0.18 | 0.18 | 84 | 1017.3 |
| 20260502030405 | 55 | 355 | 3.0 | 7.0 | 0.00 | 0.18 | 0.18 | 84 | 1017.3 |
| 20260502030205 | 55 | 359 | 3.0 | 7.0 | 0.00 | 0.18 | 0.18 | 84 | 1017.3 |
| 20260502030105 | 55 | 3 | 3.0 | 8.0 | 0.00 | 0.18 | 0.18 | 84 | 1017.3 |
| 20260502030005 | 55 | 4 | 3.0 | 8.0 | 0.00 | 0.18 | 0.18 | 84 | 1017.2 |
| 20260502025904 | 55 | 5 | 3.0 | 8.0 | 0.00 | 0.18 | 0.18 | 84 | 1017.2 |
| 20260502025705 | 55 | 6 | 3.0 | 8.0 | 0.00 | 0.18 | 0.18 | 84 | 1017.2 |
| 20260502025604 | 55 | 7 | 3.0 | 8.0 | 0.00 | 0.18 | 0.18 | 84 | 1017.2 |
| 20260502025505 | 55 | 9 | 3.0 | 8.0 | 0.00 | 0.18 | 0.18 | 84 | 1017.1 |
| 20260502025405 | 55 | 11 | 3.0 | 8.0 | 0.00 | 0.18 | 0.18 | 84 | 1017.1 |
| 20260502025205 | 55 | 9 | 3.0 | 8.0 | 0.00 | 0.18 | 0.18 | 84 | 1017.0 |
| 20260502025104 | 55 | 8 | 3.0 | 7.0 | 0.00 | 0.18 | 0.18 | 84 | 1017.0 |
| 20260502025005 | 55 | 10 | 3.0 | 7.0 | 0.00 | 0.18 | 0.18 | 84 | 1016.9 |
| 20260502024904 | 55 | 9 | 3.0 | 8.0 | 0.00 | 0.18 | 0.18 | 84 | 1016.9 |
| 20260502024805 | 55 | 10 | 3.0 | 8.0 | 0.00 | 0.18 | 0.18 | 84 | 1016.9 |
| 20260502024505 | 55 | 9 | 4.0 | 9.0 | 0.00 | 0.18 | 0.18 | 84 | 1016.9 |
| 20260502024405 | 55 | 7 | 4.0 | 9.0 | 0.00 | 0.18 | 0.18 | 84 | 1016.9 |
| 20260502024304 | 55 | 7 | 4.0 | 9.0 | 0.00 | 0.18 | 0.18 | 84 | 1016.9 |
| 20260502024205 | 56 | 8 | 4.0 | 9.0 | 0.00 | 0.18 | 0.18 | 84 | 1016.9 |
| 20260502024104 | 55 | 9 | 4.0 | 9.0 | 0.00 | 0.18 | 0.18 | 84 | 1016.9 |
| 20260502024005 | 55 | 7 | 4.0 | 9.0 | 0.00 | 0.18 | 0.18 | 84 | 1016.9 |
| 20260502023905 | 55 | 7 | 4.0 | 9.0 | 0.00 | 0.18 | 0.18 | 84 | 1016.9 |
| 20260502023804 | 55 | 7 | 3.0 | 9.0 | 0.00 | 0.18 | 0.18 | 84 | 1016.9 |
| 20260502023705 | 55 | 8 | 3.0 | 9.0 | 0.00 | 0.18 | 0.18 | 83 | 1016.9 |
| 20260502023505 | 55 | 9 | 3.0 | 9.0 | 0.00 | 0.18 | 0.18 | 84 | 1016.9 |
| 20260502023405 | 55 | 10 | 3.0 | 8.0 | 0.00 | 0.18 | 0.18 | 84 | 1016.9 |
| 20260502023305 | 55 | 11 | 3.0 | 8.0 | 0.00 | 0.18 | 0.18 | 84 | 1016.9 |
| 20260502023104 | 55 | 11 | 2.0 | 8.0 | 0.00 | 0.18 | 0.18 | 84 | 1016.9 |
| 20260502023005 | 55 | 12 | 2.0 | 7.0 | 0.00 | 0.18 | 0.18 | 84 | 1016.8 |
| 20260502022904 | 55 | 13 | 3.0 | 7.0 | 0.00 | 0.18 | 0.18 | 84 | 1016.8 |
| 20260502022805 | 55 | 13 | 3.0 | 7.0 | 0.00 | 0.18 | 0.18 | 84 | 1016.8 |
| 20260502022705 | 55 | 12 | 3.0 | 7.0 | 0.00 | 0.18 | 0.18 | 84 | 1016.8 |
| 20260502022604 | 55 | 11 | 3.0 | 7.0 | 0.00 | 0.18 | 0.18 | 84 | 1016.8 |
| 20260502022505 | 55 | 11 | 3.0 | 7.0 | 0.00 | 0.18 | 0.18 | 84 | 1016.7 |
| 20260502022404 | 55 | 10 | 3.0 | 7.0 | 0.00 | 0.18 | 0.18 | 84 | 1016.8 |
| 20260502022306 | 55 | 8 | 3.0 | 8.0 | 0.00 | 0.18 | 0.18 | 84 | 1016.7 |
| 20260502022204 | 55 | 8 | 3.0 | 8.0 | 0.00 | 0.18 | 0.18 | 84 | 1016.7 |
| 20260502022105 | 55 | 7 | 3.0 | 8.0 | 0.00 | 0.18 | 0.18 | 84 | 1016.7 |
| 20260502022005 | 55 | 7 | 3.0 | 8.0 | 0.00 | 0.18 | 0.18 | 84 | 1016.7 |
| 20260502021904 | 55 | 5 | 3.0 | 8.0 | 0.00 | 0.18 | 0.18 | 84 | 1016.7 |
| 20260502021805 | 55 | 6 | 3.0 | 8.0 | 0.00 | 0.18 | 0.18 | 84 | 1016.7 |
| 20260502021705 | 55 | 8 | 3.0 | 8.0 | 0.00 | 0.18 | 0.18 | 84 | 1016.7 |
| 20260502021505 | 55 | 8 | 3.0 | 8.0 | 0.00 | 0.18 | 0.18 | 84 | 1016.7 |
| 20260502021404 | 55 | 9 | 3.0 | 8.0 | 0.00 | 0.18 | 0.18 | 84 | 1016.6 |
| 20260502021205 | 55 | 10 | 3.0 | 8.0 | 0.00 | 0.18 | 0.18 | 84 | 1016.6 |
| 20260502021105 | 55 | 11 | 3.0 | 8.0 | 0.00 | 0.18 | 0.18 | 84 | 1016.6 |
| 20260502021005 | 55 | 12 | 3.0 | 8.0 | 0.00 | 0.18 | 0.18 | 84 | 1016.5 |
| 20260502020904 | 55 | 15 | 3.0 | 8.0 | 0.00 | 0.18 | 0.18 | 84 | 1016.4 |
| 20260502020805 | 55 | 15 | 3.0 | 8.0 | 0.00 | 0.18 | 0.18 | 84 | 1016.5 |
| 20260502020705 | 55 | 15 | 3.0 | 7.0 | 0.00 | 0.18 | 0.18 | 84 | 1016.4 |
| 20260502020605 | 55 | 16 | 3.0 | 7.0 | 0.00 | 0.18 | 0.18 | 84 | 1016.4 |
| 20260502020504 | 55 | 18 | 3.0 | 7.0 | 0.00 | 0.18 | 0.18 | 84 | 1016.4 |
| 20260502020405 | 55 | 18 | 3.0 | 7.0 | 0.00 | 0.18 | 0.18 | 84 | 1016.4 |
| 20260502020304 | 55 | 19 | 2.0 | 9.0 | 0.00 | 0.18 | 0.18 | 84 | 1016.4 |
| 20260502020205 | 55 | 20 | 2.0 | 9.0 | 0.00 | 0.18 | 0.18 | 84 | 1016.3 |
| 20260502020104 | 55 | 18 | 2.0 | 9.0 | 0.00 | 0.18 | 0.18 | 84 | 1016.3 |
| 20260502015804 | 55 | 15 | 2.0 | 9.0 | 0.00 | 0.18 | 0.18 | 84 | 1016.3 |
| 20260502015706 | 55 | 14 | 2.0 | 9.0 | 0.00 | 0.18 | 0.18 | 84 | 1016.2 |
| 20260502015604 | 55 | 14 | 2.0 | 9.0 | 0.00 | 0.18 | 0.18 | 84 | 1016.2 |
| 20260502015404 | 55 | 14 | 3.0 | 9.0 | 0.00 | 0.18 | 0.18 | 84 | 1016.2 |
| 20260502015305 | 55 | 15 | 3.0 | 8.0 | 0.00 | 0.18 | 0.18 | 84 | 1016.2 |
| 20260502015205 | 55 | 15 | 3.0 | 8.0 | 0.00 | 0.18 | 0.18 | 84 | 1016.1 |
| 20260502015104 | 55 | 17 | 3.0 | 7.0 | 0.00 | 0.18 | 0.18 | 84 | 1016.1 |
| 20260502015005 | 55 | 18 | 3.0 | 7.0 | 0.00 | 0.18 | 0.18 | 84 | 1016.1 |
| 20260502014904 | 55 | 19 | 3.0 | 7.0 | 0.00 | 0.18 | 0.18 | 84 | 1016.1 |
| 20260502014804 | 55 | 21 | 3.0 | 8.0 | 0.00 | 0.18 | 0.18 | 84 | 1016.1 |
| 20260502014705 | 55 | 22 | 3.0 | 8.0 | 0.00 | 0.18 | 0.18 | 84 | 1016.0 |
| 20260502014605 | 55 | 23 | 3.0 | 8.0 | 0.00 | 0.18 | 0.18 | 84 | 1016.0 |
| 20260502014505 | 55 | 24 | 3.0 | 8.0 | 0.00 | 0.18 | 0.18 | 84 | 1016.0 |
| 20260502014404 | 55 | 22 | 3.0 | 8.0 | 0.00 | 0.18 | 0.18 | 84 | 1016.0 |
| 20260502014205 | 55 | 23 | 3.0 | 8.0 | 0.00 | 0.18 | 0.18 | 83 | 1015.9 |
| 20260502014104 | 55 | 25 | 3.0 | 8.0 | 0.00 | 0.18 | 0.18 | 83 | 1015.9 |
| 20260502014005 | 55 | 26 | 3.0 | 8.0 | 0.00 | 0.18 | 0.18 | 84 | 1015.8 |
| 20260502013904 | 55 | 27 | 3.0 | 8.0 | 0.00 | 0.18 | 0.18 | 84 | 1015.8 |
| 20260502013705 | 55 | 28 | 3.0 | 8.0 | 0.00 | 0.18 | 0.18 | 84 | 1015.8 |
| 20260502013605 | 55 | 29 | 3.0 | 8.0 | 0.00 | 0.18 | 0.18 | 84 | 1015.8 |
| 20260502013505 | 55 | 29 | 3.0 | 8.0 | 0.00 | 0.18 | 0.18 | 84 | 1015.7 |
| 20260502013405 | 55 | 31 | 3.0 | 6.0 | 0.00 | 0.18 | 0.18 | 84 | 1015.7 |
| 20260502013304 | 55 | 32 | 3.0 | 6.0 | 0.00 | 0.18 | 0.18 | 84 | 1015.7 |
| 20260502013205 | 55 | 30 | 3.0 | 6.0 | 0.00 | 0.18 | 0.18 | 84 | 1015.7 |
| 20260502013006 | 55 | 30 | 3.0 | 6.0 | 0.00 | 0.18 | 0.18 | 84 | 1015.6 |
| 20260502012905 | 55 | 29 | 3.0 | 6.0 | 0.00 | 0.18 | 0.18 | 84 | 1015.7 |
| 20260502012804 | 55 | 28 | 3.0 | 6.0 | 0.00 | 0.18 | 0.18 | 84 | 1015.6 |
| 20260502012705 | 55 | 29 | 3.0 | 6.0 | 0.00 | 0.18 | 0.18 | 84 | 1015.6 |
| 20260502012604 | 55 | 27 | 3.0 | 6.0 | 0.00 | 0.18 | 0.18 | 84 | 1015.6 |
| 20260502012505 | 55 | 29 | 3.0 | 6.0 | 0.00 | 0.18 | 0.18 | 85 | 1015.7 |
| 20260502012404 | 55 | 27 | 3.0 | 8.0 | 0.00 | 0.18 | 0.18 | 85 | 1015.7 |
| 20260502012306 | 56 | 27 | 3.0 | 8.0 | 0.00 | 0.18 | 0.18 | 85 | 1015.6 |
| 20260502012205 | 55 | 27 | 3.0 | 8.0 | 0.00 | 0.18 | 0.18 | 85 | 1015.6 |
| 20260502012105 | 56 | 28 | 3.0 | 8.0 | 0.00 | 0.18 | 0.18 | 85 | 1015.6 |
| 20260502011904 | 55 | 26 | 3.0 | 8.0 | 0.00 | 0.19 | 0.18 | 85 | 1015.5 |
| 20260502011704 | 55 | 26 | 3.0 | 8.0 | 0.00 | 0.19 | 0.18 | 85 | 1015.5 |
| 20260502011605 | 55 | 26 | 3.0 | 8.0 | 0.00 | 0.19 | 0.18 | 85 | 1015.5 |
| 20260502011504 | 55 | 25 | 3.0 | 8.0 | 0.00 | 0.19 | 0.18 | 85 | 1015.4 |
| 20260502011405 | 55 | 25 | 3.0 | 8.0 | 0.00 | 0.19 | 0.18 | 85 | 1015.3 |
| 20260502011305 | 55 | 24 | 3.0 | 8.0 | 0.00 | 0.19 | 0.18 | 85 | 1015.3 |
| 20260502011204 | 55 | 24 | 3.0 | 8.0 | 0.00 | 0.19 | 0.18 | 85 | 1015.3 |
| 20260502011005 | 55 | 23 | 3.0 | 8.0 | 0.00 | 0.19 | 0.18 | 86 | 1015.3 |
| 20260502010904 | 55 | 23 | 3.0 | 6.0 | 0.00 | 0.19 | 0.18 | 85 | 1015.3 |
| 20260502010805 | 55 | 22 | 3.0 | 6.0 | 0.00 | 0.19 | 0.18 | 85 | 1015.3 |
| 20260502010704 | 55 | 23 | 3.0 | 6.0 | 0.00 | 0.20 | 0.18 | 86 | 1015.3 |
| 20260502010504 | 55 | 24 | 3.0 | 5.0 | 0.00 | 0.20 | 0.18 | 86 | 1015.3 |
| 20260502010404 | 55 | 25 | 2.0 | 5.0 | 0.00 | 0.20 | 0.18 | 86 | 1015.3 |
| 20260502010306 | 56 | 25 | 2.0 | 6.0 | 0.00 | 0.20 | 0.18 | 86 | 1015.2 |
| 20260502010204 | 56 | 27 | 2.0 | 6.0 | 0.00 | 0.20 | 0.18 | 86 | 1015.2 |
| 20260502010105 | 56 | 30 | 2.0 | 6.0 | 0.00 | 0.20 | 0.18 | 86 | 1015.2 |
| 20260502010004 | 56 | 32 | 2.0 | 6.0 | 0.00 | 0.20 | 0.18 | 86 | 1015.1 |
| 20260502005804 | 56 | 35 | 3.0 | 6.0 | 0.00 | 0.20 | 0.18 | 86 | 1015.2 |
| 20260502005505 | 56 | 38 | 3.0 | 9.0 | 0.00 | 0.20 | 0.18 | 86 | 1015.1 |
| 20260502005405 | 56 | 37 | 4.0 | 10.0 | 0.00 | 0.20 | 0.18 | 86 | 1015.1 |
| 20260502005306 | 56 | 40 | 4.0 | 10.0 | 0.00 | 0.20 | 0.18 | 86 | 1015.0 |
| 20260502005204 | 56 | 40 | 4.0 | 10.0 | 0.00 | 0.20 | 0.18 | 85 | 1015.0 |
| 20260502005004 | 56 | 39 | 5.0 | 10.0 | 0.00 | 0.20 | 0.18 | 85 | 1015.0 |
| 20260502004905 | 56 | 40 | 5.0 | 10.0 | 0.00 | 0.20 | 0.18 | 85 | 1014.9 |
| 20260502004804 | 56 | 40 | 5.0 | 10.0 | 0.00 | 0.20 | 0.18 | 85 | 1014.9 |
| 20260502004604 | 56 | 43 | 5.0 | 10.0 | 0.00 | 0.20 | 0.18 | 85 | 1014.9 |
| 20260502004505 | 56 | 44 | 5.0 | 10.0 | 0.00 | 0.20 | 0.18 | 85 | 1014.8 |
| 20260502004404 | 56 | 47 | 5.0 | 9.0 | 0.00 | 0.20 | 0.18 | 85 | 1014.8 |
| 20260502004305 | 56 | 47 | 5.0 | 9.0 | 0.00 | 0.20 | 0.18 | 85 | 1014.9 |
| 20260502004205 | 56 | 49 | 5.0 | 9.0 | 0.00 | 0.20 | 0.18 | 86 | 1014.9 |
| 20260502004104 | 56 | 51 | 5.0 | 9.0 | 0.00 | 0.20 | 0.18 | 86 | 1014.9 |
| 20260502004005 | 56 | 52 | 5.0 | 9.0 | 0.00 | 0.20 | 0.18 | 85 | 1014.9 |
| 20260502003904 | 56 | 52 | 5.0 | 9.0 | 0.00 | 0.21 | 0.18 | 85 | 1014.8 |
| 20260502003704 | 56 | 54 | 5.0 | 9.0 | 0.00 | 0.21 | 0.18 | 85 | 1014.8 |
| 20260502003605 | 56 | 55 | 5.0 | 9.0 | 0.00 | 0.21 | 0.18 | 86 | 1014.8 |
| 20260502003405 | 56 | 56 | 5.0 | 8.0 | 0.00 | 0.21 | 0.18 | 86 | 1014.8 |
| 20260502003304 | 56 | 56 | 5.0 | 8.0 | 0.00 | 0.21 | 0.18 | 86 | 1014.7 |
| 20260502003204 | 56 | 56 | 5.0 | 8.0 | 0.00 | 0.21 | 0.18 | 86 | 1014.8 |
| 20260502003004 | 56 | 57 | 4.0 | 8.0 | 0.00 | 0.21 | 0.18 | 86 | 1014.7 |
| 20260502002905 | 56 | 57 | 4.0 | 8.0 | 0.00 | 0.21 | 0.18 | 86 | 1014.7 |
| 20260502002804 | 56 | 56 | 4.0 | 8.0 | 0.00 | 0.21 | 0.18 | 86 | 1014.7 |
| 20260502002705 | 56 | 56 | 4.0 | 8.0 | 0.00 | 0.21 | 0.18 | 86 | 1014.7 |
| 20260502002604 | 56 | 54 | 4.0 | 8.0 | 0.00 | 0.21 | 0.18 | 86 | 1014.7 |
| 20260502002505 | 56 | 54 | 4.0 | 8.0 | 0.00 | 0.21 | 0.18 | 86 | 1014.7 |
| 20260502002404 | 56 | 54 | 4.0 | 8.0 | 0.00 | 0.21 | 0.18 | 86 | 1014.6 |
| 20260502002306 | 56 | 55 | 4.0 | 8.0 | 0.00 | 0.21 | 0.18 | 86 | 1014.7 |
| 20260502002204 | 56 | 53 | 4.0 | 8.0 | 0.00 | 0.21 | 0.18 | 86 | 1014.6 |
| 20260502001904 | 56 | 53 | 4.0 | 9.0 | 0.00 | 0.21 | 0.18 | 86 | 1014.6 |
| 20260502001805 | 56 | 54 | 4.0 | 9.0 | 0.00 | 0.21 | 0.18 | 87 | 1014.7 |
| 20260502001704 | 56 | 53 | 4.0 | 9.0 | 0.00 | 0.21 | 0.18 | 87 | 1014.7 |
| 20260502001605 | 56 | 54 | 4.0 | 9.0 | 0.00 | 0.21 | 0.18 | 86 | 1014.7 |
| 20260502001505 | 56 | 54 | 4.0 | 9.0 | 0.00 | 0.21 | 0.18 | 87 | 1014.7 |
| 20260502001404 | 56 | 52 | 4.0 | 9.0 | 0.00 | 0.21 | 0.18 | 86 | 1014.7 |
| 20260502001205 | 56 | 50 | 4.0 | 9.0 | 0.00 | 0.21 | 0.18 | 87 | 1014.7 |
| 20260502001105 | 56 | 50 | 4.0 | 9.0 | 0.00 | 0.21 | 0.18 | 87 | 1014.7 |
| 20260502001004 | 56 | 49 | 4.0 | 9.0 | 0.00 | 0.21 | 0.18 | 87 | 1014.7 |
| 20260502000905 | 56 | 46 | 4.0 | 9.0 | 0.00 | 0.21 | 0.18 | 87 | 1014.6 |
| 20260502000804 | 56 | 44 | 4.0 | 9.0 | 0.00 | 0.21 | 0.18 | 87 | 1014.6 |
| 20260502000705 | 56 | 42 | 3.0 | 9.0 | 0.00 | 0.21 | 0.18 | 87 | 1014.6 |
| 20260502000604 | 56 | 40 | 4.0 | 9.0 | 0.00 | 0.21 | 0.18 | 87 | 1014.6 |
| 20260502000404 | 56 | 36 | 4.0 | 9.0 | 0.00 | 0.21 | 0.18 | 87 | 1014.5 |
| 20260502000305 | 56 | 36 | 4.0 | 9.0 | 0.00 | 0.21 | 0.18 | 87 | 1014.5 |
| 20260502000204 | 56 | 36 | 4.0 | 11.0 | 0.00 | 0.21 | 0.18 | 88 | 1014.5 |
| 20260502000105 | 56 | 35 | 4.0 | 11.0 | 0.00 | 0.21 | 0.18 | 88 | 1014.4 |
| 20260502000004 | 56 | 33 | 4.0 | 11.0 | 0.00 | 0.21 | 0.18 | 88 | 1014.5 |
| 20260501235905 | 56 | 34 | 4.0 | 11.0 | 0.00 | 0.21 | 0.18 | 88 | 1014.5 |
| 20260501235604 | 56 | 39 | 4.0 | 11.0 | 0.00 | 0.21 | 0.18 | 88 | 1014.5 |
| 20260501235504 | 56 | 40 | 4.0 | 11.0 | 0.00 | 0.21 | 0.18 | 88 | 1014.4 |
| 20260501235306 | 56 | 43 | 4.0 | 11.0 | 0.00 | 0.21 | 0.18 | 88 | 1014.4 |
| 20260501235204 | 55 | 43 | 4.0 | 9.0 | 0.00 | 0.21 | 0.18 | 88 | 1014.5 |
| 20260501235105 | 55 | 41 | 4.0 | 9.0 | 0.00 | 0.21 | 0.18 | 88 | 1014.5 |
| 20260501235004 | 55 | 42 | 4.0 | 9.0 | 0.00 | 0.21 | 0.18 | 89 | 1014.5 |
| 20260501234904 | 55 | 42 | 4.0 | 9.0 | 0.00 | 0.21 | 0.18 | 89 | 1014.5 |
| 20260501234804 | 55 | 42 | 4.0 | 9.0 | 0.00 | 0.22 | 0.18 | 89 | 1014.5 |
| 20260501234705 | 55 | 40 | 3.0 | 9.0 | 0.00 | 0.22 | 0.18 | 89 | 1014.5 |
| 20260501234604 | 55 | 41 | 3.0 | 8.0 | 0.00 | 0.22 | 0.18 | 89 | 1014.4 |
| 20260501234505 | 55 | 43 | 3.0 | 8.0 | 0.00 | 0.22 | 0.18 | 89 | 1014.4 |
| 20260501234304 | 55 | 38 | 3.0 | 6.0 | 0.00 | 0.22 | 0.18 | 89 | 1014.3 |
| 20260501234205 | 55 | 38 | 3.0 | 6.0 | 0.00 | 0.22 | 0.18 | 89 | 1014.3 |
| 20260501234104 | 55 | 38 | 3.0 | 6.0 | 0.00 | 0.22 | 0.18 | 89 | 1014.3 |
| 20260501234005 | 55 | 38 | 3.0 | 6.0 | 0.00 | 0.22 | 0.18 | 89 | 1014.3 |
| 20260501233904 | 55 | 40 | 3.0 | 6.0 | 0.00 | 0.22 | 0.18 | 90 | 1014.2 |
| 20260501233805 | 56 | 41 | 3.0 | 6.0 | 0.00 | 0.22 | 0.18 | 90 | 1014.2 |
| 20260501233704 | 55 | 40 | 3.0 | 6.0 | 0.00 | 0.22 | 0.18 | 90 | 1014.2 |
| 20260501233605 | 55 | 37 | 3.0 | 6.0 | 0.00 | 0.23 | 0.18 | 90 | 1014.2 |
| 20260501233504 | 55 | 32 | 3.0 | 6.0 | 0.00 | 0.23 | 0.18 | 90 | 1014.1 |
| 20260501233405 | 55 | 32 | 3.0 | 6.0 | 0.00 | 0.23 | 0.18 | 90 | 1014.1 |
| 20260501233304 | 55 | 33 | 3.0 | 6.0 | 0.00 | 0.23 | 0.18 | 90 | 1014.0 |
| 20260501233205 | 55 | 31 | 4.0 | 8.0 | 0.00 | 0.23 | 0.18 | 90 | 1014.0 |
| 20260501233105 | 55 | 30 | 4.0 | 8.0 | 0.00 | 0.23 | 0.18 | 90 | 1014.0 |
| 20260501233004 | 55 | 32 | 4.0 | 9.0 | 0.00 | 0.23 | 0.18 | 91 | 1014.0 |
| 20260501232904 | 55 | 32 | 4.0 | 9.0 | 0.00 | 0.23 | 0.18 | 91 | 1014.0 |
| 20260501232805 | 55 | 31 | 4.0 | 9.0 | 0.00 | 0.23 | 0.18 | 90 | 1013.9 |
| 20260501232704 | 55 | 32 | 4.0 | 9.0 | 0.00 | 0.23 | 0.18 | 90 | 1013.9 |
| 20260501232605 | 55 | 32 | 4.0 | 9.0 | 0.00 | 0.23 | 0.18 | 90 | 1013.9 |
| 20260501232504 | 55 | 34 | 4.0 | 9.0 | 0.00 | 0.24 | 0.18 | 90 | 1013.9 |
| 20260501232405 | 55 | 34 | 4.0 | 9.0 | 0.00 | 0.24 | 0.18 | 90 | 1013.9 |
| 20260501232306 | 55 | 34 | 4.0 | 9.0 | 0.00 | 0.24 | 0.18 | 90 | 1013.8 |
| 20260501232204 | 55 | 35 | 3.0 | 9.0 | 0.00 | 0.24 | 0.18 | 90 | 1013.9 |
| 20260501232104 | 55 | 35 | 3.0 | 9.0 | 0.00 | 0.24 | 0.18 | 90 | 1013.9 |
| 20260501232005 | 55 | 33 | 3.0 | 8.0 | 0.00 | 0.24 | 0.18 | 90 | 1013.9 |
| 20260501231904 | 55 | 32 | 3.0 | 9.0 | 0.00 | 0.24 | 0.18 | 90 | 1014.0 |
| 20260501231805 | 55 | 33 | 3.0 | 9.0 | 0.00 | 0.24 | 0.18 | 90 | 1014.0 |
| 20260501231704 | 55 | 31 | 3.0 | 9.0 | 0.00 | 0.24 | 0.18 | 90 | 1014.1 |
| 20260501231605 | 55 | 31 | 4.0 | 9.0 | 0.00 | 0.24 | 0.18 | 90 | 1014.1 |
| 20260501231504 | 54 | 31 | 4.0 | 9.0 | 0.00 | 0.24 | 0.18 | 90 | 1014.1 |
| 20260501231304 | 54 | 33 | 4.0 | 9.0 | 0.00 | 0.24 | 0.18 | 90 | 1014.1 |
| 20260501231204 | 54 | 33 | 4.0 | 9.0 | 0.00 | 0.24 | 0.18 | 90 | 1014.1 |
| 20260501231004 | 54 | 35 | 4.0 | 9.0 | 0.00 | 0.25 | 0.18 | 90 | 1014.0 |
| 20260501230904 | 54 | 35 | 4.0 | 9.0 | 0.00 | 0.25 | 0.18 | 90 | 1014.0 |
| 20260501230805 | 54 | 35 | 4.0 | 9.0 | 0.00 | 0.25 | 0.18 | 90 | 1014.0 |
| 20260501230704 | 54 | 37 | 4.0 | 9.0 | 0.00 | 0.25 | 0.18 | 90 | 1014.0 |
| 20260501230605 | 54 | 38 | 3.0 | 9.0 | 0.00 | 0.25 | 0.18 | 90 | 1014.0 |
| 20260501230304 | 54 | 38 | 3.0 | 8.0 | 0.00 | 0.25 | 0.18 | 90 | 1014.2 |
| 20260501230205 | 54 | 38 | 3.0 | 8.0 | 0.00 | 0.25 | 0.18 | 90 | 1014.2 |
| 20260501230104 | 54 | 38 | 3.0 | 8.0 | 0.00 | 0.25 | 0.18 | 90 | 1014.2 |
| 20260501230005 | 54 | 40 | 4.0 | 8.0 | 0.00 | 0.25 | 0.18 | 90 | 1014.2 |
| 20260501225805 | 54 | 45 | 4.0 | 7.0 | 0.00 | 0.26 | 0.18 | 90 | 1014.0 |
| 20260501225705 | 54 | 48 | 4.0 | 8.0 | 0.00 | 0.26 | 0.18 | 90 | 1014.0 |
| 20260501225604 | 54 | 52 | 4.0 | 9.0 | 0.00 | 0.26 | 0.18 | 90 | 1014.0 |
| 20260501225505 | 54 | 56 | 5.0 | 9.0 | 0.00 | 0.26 | 0.18 | 90 | 1014.1 |
| 20260501225405 | 54 | 56 | 5.0 | 10.0 | 0.00 | 0.26 | 0.18 | 90 | 1014.1 |
| 20260501225306 | 54 | 58 | 5.0 | 11.0 | 0.00 | 0.26 | 0.18 | 89 | 1014.2 |
| 20260501225205 | 54 | 60 | 6.0 | 11.0 | 0.00 | 0.26 | 0.18 | 89 | 1014.2 |
| 20260501225104 | 54 | 60 | 6.0 | 11.0 | 0.00 | 0.26 | 0.18 | 89 | 1014.2 |
| 20260501225005 | 54 | 61 | 6.0 | 11.0 | 0.00 | 0.26 | 0.18 | 89 | 1014.2 |
| 20260501224906 | 54 | 63 | 6.0 | 11.0 | 0.00 | 0.26 | 0.18 | 89 | 1014.1 |
| 20260501224804 | 54 | 62 | 6.0 | 11.0 | 0.00 | 0.26 | 0.18 | 89 | 1014.1 |
| 20260501224704 | 54 | 61 | 6.0 | 11.0 | 0.00 | 0.26 | 0.18 | 89 | 1014.0 |
| 20260501224605 | 54 | 60 | 6.0 | 11.0 | 0.00 | 0.26 | 0.18 | 88 | 1014.0 |
| 20260501224504 | 54 | 58 | 5.0 | 11.0 | 0.00 | 0.27 | 0.18 | 88 | 1014.0 |
| 20260501224404 | 54 | 59 | 5.0 | 11.0 | 0.00 | 0.27 | 0.18 | 88 | 1014.0 |
| 20260501224304 | 54 | 58 | 5.0 | 11.0 | 0.00 | 0.27 | 0.18 | 88 | 1014.0 |
| 20260501224204 | 55 | 57 | 6.0 | 12.0 | 0.00 | 0.27 | 0.18 | 88 | 1014.0 |
| 20260501224104 | 55 | 55 | 6.0 | 12.0 | 0.00 | 0.27 | 0.18 | 88 | 1014.1 |
| 20260501224005 | 55 | 52 | 6.0 | 12.0 | 0.00 | 0.27 | 0.18 | 88 | 1014.1 |
| 20260501223904 | 55 | 51 | 6.0 | 12.0 | 0.00 | 0.27 | 0.18 | 88 | 1014.1 |
| 20260501223805 | 55 | 50 | 6.0 | 12.0 | 0.00 | 0.27 | 0.18 | 88 | 1014.1 |
| 20260501223704 | 55 | 47 | 6.0 | 12.0 | 0.00 | 0.27 | 0.18 | 87 | 1014.1 |
| 20260501223605 | 55 | 46 | 6.0 | 12.0 | 0.00 | 0.27 | 0.18 | 87 | 1014.2 |
| 20260501223405 | 55 | 43 | 6.0 | 12.0 | 0.00 | 0.28 | 0.18 | 87 | 1014.1 |
| 20260501223205 | 55 | 38 | 5.0 | 11.0 | 0.00 | 0.28 | 0.18 | 86 | 1014.1 |
| 20260501223104 | 55 | 38 | 5.0 | 11.0 | 0.00 | 0.28 | 0.18 | 86 | 1014.3 |
| 20260501222904 | 55 | 35 | 5.0 | 12.0 | 0.00 | 0.28 | 0.18 | 86 | 1014.4 |
| 20260501222805 | 55 | 35 | 5.0 | 12.0 | 0.00 | 0.28 | 0.18 | 86 | 1014.4 |
| 20260501222704 | 55 | 35 | 5.0 | 12.0 | 0.00 | 0.28 | 0.18 | 85 | 1014.4 |
| 20260501222605 | 55 | 33 | 5.0 | 12.0 | 0.00 | 0.28 | 0.18 | 85 | 1014.4 |
| 20260501222504 | 55 | 31 | 5.0 | 12.0 | 0.00 | 0.28 | 0.18 | 85 | 1014.4 |
| 20260501222405 | 55 | 31 | 5.0 | 12.0 | 0.00 | 0.28 | 0.18 | 85 | 1014.4 |
| 20260501222305 | 55 | 30 | 5.0 | 12.0 | 0.00 | 0.29 | 0.18 | 85 | 1014.5 |
| 20260501222205 | 55 | 30 | 5.0 | 12.0 | 0.00 | 0.29 | 0.18 | 84 | 1014.5 |
| 20260501222104 | 55 | 30 | 5.0 | 12.0 | 0.00 | 0.29 | 0.18 | 84 | 1014.6 |
| 20260501222005 | 55 | 29 | 5.0 | 12.0 | 0.00 | 0.29 | 0.18 | 84 | 1014.5 |
| 20260501221904 | 55 | 28 | 5.0 | 12.0 | 0.00 | 0.29 | 0.18 | 84 | 1014.5 |
| 20260501221805 | 55 | 27 | 5.0 | 12.0 | 0.00 | 0.29 | 0.18 | 84 | 1014.5 |
| 20260501221705 | 55 | 29 | 5.0 | 12.0 | 0.00 | 0.29 | 0.18 | 84 | 1014.5 |
| 20260501221504 | 55 | 29 | 6.0 | 18.0 | 0.00 | 0.29 | 0.18 | 83 | 1014.5 |
| 20260501221404 | 55 | 28 | 6.0 | 18.0 | 0.00 | 0.29 | 0.18 | 83 | 1014.4 |
| 20260501221204 | 55 | 28 | 6.0 | 18.0 | 0.00 | 0.29 | 0.18 | 83 | 1014.4 |
| 20260501221105 | 55 | 27 | 7.0 | 20.0 | 0.00 | 0.29 | 0.18 | 83 | 1014.3 |
| 20260501221004 | 55 | 28 | 7.0 | 20.0 | 0.00 | 0.29 | 0.18 | 83 | 1014.3 |
| 20260501220904 | 55 | 28 | 8.0 | 20.0 | 0.00 | 0.29 | 0.18 | 83 | 1014.3 |
| 20260501220804 | 55 | 29 | 8.0 | 20.0 | 0.00 | 0.29 | 0.18 | 83 | 1014.2 |
| 20260501220705 | 55 | 28 | 8.0 | 20.0 | 0.00 | 0.29 | 0.18 | 83 | 1014.2 |
| 20260501220604 | 55 | 27 | 9.0 | 20.0 | 0.00 | 0.29 | 0.18 | 83 | 1014.1 |
| 20260501220504 | 55 | 25 | 8.0 | 20.0 | 0.00 | 0.29 | 0.18 | 83 | 1014.1 |
| 20260501220404 | 55 | 25 | 9.0 | 20.0 | 0.00 | 0.29 | 0.18 | 83 | 1014.1 |
| 20260501220304 | 55 | 22 | 9.0 | 20.0 | 0.00 | 0.29 | 0.18 | 83 | 1013.9 |
| 20260501220204 | 55 | 22 | 9.0 | 20.0 | 0.00 | 0.29 | 0.18 | 83 | 1013.9 |
| 20260501220104 | 55 | 20 | 9.0 | 20.0 | 0.00 | 0.29 | 0.18 | 83 | 1013.9 |
| 20260501220005 | 55 | 17 | 9.0 | 20.0 | 0.00 | 0.29 | 0.18 | 83 | 1013.9 |
| 20260501215504 | 56 | 11 | 8.0 | 20.0 | 0.00 | 0.29 | 0.18 | 85 | 1013.7 |
| 20260501215405 | 56 | 11 | 9.0 | 22.0 | 0.00 | 0.29 | 0.18 | 85 | 1013.6 |
| 20260501215305 | 56 | 13 | 9.0 | 22.0 | 0.00 | 0.29 | 0.18 | 86 | 1013.7 |
| 20260501215104 | 56 | 14 | 9.0 | 22.0 | 0.00 | 0.29 | 0.18 | 86 | 1013.7 |
| 20260501215005 | 56 | 14 | 9.0 | 22.0 | 0.00 | 0.29 | 0.18 | 86 | 1013.7 |
| 20260501214904 | 56 | 13 | 9.0 | 22.0 | 0.00 | 0.29 | 0.18 | 86 | 1013.6 |
| 20260501214805 | 56 | 13 | 10.0 | 22.0 | 0.00 | 0.29 | 0.18 | 86 | 1013.6 |
| 20260501214704 | 56 | 12 | 10.0 | 22.0 | 0.00 | 0.30 | 0.18 | 87 | 1013.5 |
| 20260501214605 | 56 | 13 | 10.0 | 22.0 | 0.00 | 0.30 | 0.18 | 87 | 1013.5 |
| 20260501214504 | 56 | 13 | 10.0 | 22.0 | 0.00 | 0.30 | 0.18 | 87 | 1013.5 |
| 20260501214405 | 56 | 14 | 9.0 | 20.0 | 0.00 | 0.30 | 0.18 | 87 | 1013.5 |
| 20260501214304 | 56 | 13 | 9.0 | 20.0 | 0.00 | 0.30 | 0.18 | 87 | 1013.4 |
| 20260501214205 | 56 | 13 | 9.0 | 20.0 | 0.00 | 0.30 | 0.18 | 87 | 1013.4 |
| 20260501214104 | 56 | 13 | 9.0 | 20.0 | 0.00 | 0.30 | 0.18 | 87 | 1013.3 |
| 20260501214005 | 56 | 13 | 9.0 | 20.0 | 0.00 | 0.31 | 0.18 | 87 | 1013.3 |
| 20260501213904 | 56 | 14 | 9.0 | 20.0 | 0.00 | 0.31 | 0.18 | 88 | 1013.2 |
| 20260501213804 | 56 | 14 | 9.0 | 20.0 | 0.00 | 0.31 | 0.18 | 88 | 1013.1 |
| 20260501213504 | 56 | 13 | 8.0 | 20.0 | 0.00 | 0.32 | 0.18 | 88 | 1013.0 |
| 20260501213405 | 56 | 11 | 8.0 | 20.0 | 0.00 | 0.32 | 0.18 | 88 | 1013.0 |
| 20260501213304 | 56 | 10 | 8.0 | 20.0 | 0.00 | 0.32 | 0.18 | 88 | 1013.0 |
| 20260501213005 | 56 | 8 | 9.0 | 20.0 | 0.00 | 0.33 | 0.18 | 88 | 1012.9 |
| 20260501212904 | 56 | 8 | 8.0 | 20.0 | 0.00 | 0.34 | 0.18 | 88 | 1012.9 |
| 20260501212804 | 56 | 7 | 9.0 | 17.0 | 0.00 | 0.34 | 0.18 | 88 | 1012.9 |
| 20260501212704 | 56 | 7 | 9.0 | 17.0 | 0.00 | 0.34 | 0.18 | 88 | 1012.9 |
| 20260501212605 | 56 | 8 | 9.0 | 17.0 | 0.00 | 0.34 | 0.18 | 88 | 1013.0 |
| 20260501212504 | 56 | 9 | 9.0 | 17.0 | 0.00 | 0.34 | 0.18 | 89 | 1012.9 |
| 20260501212404 | 56 | 10 | 8.0 | 17.0 | 0.00 | 0.34 | 0.18 | 89 | 1013.0 |
| 20260501212306 | 56 | 11 | 9.0 | 17.0 | 0.00 | 0.34 | 0.18 | 89 | 1012.9 |
| 20260501212205 | 56 | 12 | 9.0 | 17.0 | 0.00 | 0.34 | 0.18 | 89 | 1012.9 |
| 20260501212104 | 56 | 14 | 8.0 | 21.0 | 0.00 | 0.35 | 0.18 | 89 | 1012.8 |
| 20260501212004 | 56 | 15 | 8.0 | 21.0 | 0.00 | 0.35 | 0.18 | 89 | 1012.7 |
| 20260501211904 | 56 | 15 | 8.0 | 21.0 | 0.00 | 0.35 | 0.18 | 89 | 1012.7 |
| 20260501211804 | 56 | 17 | 8.0 | 21.0 | 0.00 | 0.35 | 0.18 | 89 | 1012.7 |
| 20260501211704 | 56 | 17 | 8.0 | 21.0 | 0.00 | 0.35 | 0.18 | 89 | 1012.6 |
| 20260501211604 | 56 | 18 | 8.0 | 21.0 | 0.00 | 0.35 | 0.18 | 89 | 1012.6 |
| 20260501211505 | 56 | 18 | 8.0 | 21.0 | 0.00 | 0.35 | 0.18 | 89 | 1012.5 |
| 20260501211404 | 56 | 17 | 9.0 | 22.0 | 0.00 | 0.35 | 0.18 | 89 | 1012.5 |
| 20260501211304 | 56 | 15 | 9.0 | 22.0 | 0.00 | 0.35 | 0.18 | 89 | 1012.4 |
| 20260501211204 | 56 | 13 | 10.0 | 22.0 | 0.00 | 0.35 | 0.18 | 89 | 1012.3 |
| 20260501211004 | 56 | 11 | 11.0 | 24.0 | 0.00 | 0.35 | 0.18 | 89 | 1012.4 |
| 20260501210904 | 56 | 11 | 11.0 | 24.0 | 0.00 | 0.35 | 0.18 | 89 | 1012.3 |
| 20260501210805 | 56 | 9 | 11.0 | 24.0 | 0.00 | 0.35 | 0.18 | 89 | 1012.3 |
| 20260501210704 | 56 | 11 | 12.0 | 24.0 | 0.00 | 0.35 | 0.18 | 89 | 1012.3 |
| 20260501210604 | 56 | 10 | 12.0 | 24.0 | 0.00 | 0.35 | 0.18 | 89 | 1012.2 |
| 20260501210505 | 56 | 9 | 12.0 | 24.0 | 0.00 | 0.35 | 0.18 | 89 | 1012.2 |
| 20260501210404 | 56 | 9 | 12.0 | 24.0 | 0.00 | 0.35 | 0.18 | 89 | 1012.3 |
| 20260501210104 | 56 | 8 | 11.0 | 21.0 | 0.00 | 0.35 | 0.18 | 89 | 1012.2 |
| 20260501210004 | 56 | 7 | 11.0 | 21.0 | 0.00 | 0.35 | 0.18 | 89 | 1012.3 |
| 20260501205904 | 56 | 7 | 11.0 | 21.0 | 0.00 | 0.35 | 0.18 | 89 | 1012.2 |
| 20260501205804 | 56 | 8 | 10.0 | 21.0 | 0.00 | 0.35 | 0.18 | 89 | 1012.3 |
| 20260501205704 | 56 | 6 | 10.0 | 21.0 | 0.00 | 0.35 | 0.18 | 89 | 1012.3 |
| 20260501205604 | 56 | 8 | 10.0 | 21.0 | 0.00 | 0.35 | 0.18 | 89 | 1012.3 |
| 20260501205504 | 56 | 9 | 10.0 | 21.0 | 0.00 | 0.35 | 0.18 | 89 | 1012.3 |
| 20260501205404 | 56 | 10 | 9.0 | 20.0 | 0.00 | 0.35 | 0.18 | 89 | 1012.2 |
| 20260501205306 | 56 | 13 | 9.0 | 20.0 | 0.00 | 0.35 | 0.18 | 89 | 1012.2 |
| 20260501205104 | 56 | 16 | 9.0 | 20.0 | 0.00 | 0.35 | 0.18 | 89 | 1012.2 |
| 20260501205004 | 56 | 19 | 9.0 | 20.0 | 0.00 | 0.35 | 0.18 | 89 | 1012.2 |
| 20260501204904 | 56 | 21 | 9.0 | 19.0 | 0.01 | 0.35 | 0.18 | 90 | 1012.2 |
| 20260501204705 | 56 | 21 | 9.0 | 19.0 | 0.01 | 0.36 | 0.18 | 90 | 1012.2 |
| 20260501204504 | 56 | 21 | 8.0 | 19.0 | 0.01 | 0.36 | 0.18 | 90 | 1012.2 |
| 20260501204405 | 56 | 22 | 8.0 | 19.0 | 0.01 | 0.36 | 0.18 | 90 | 1012.2 |
| 20260501204304 | 56 | 21 | 9.0 | 19.0 | 0.01 | 0.37 | 0.18 | 90 | 1012.1 |
| 20260501204205 | 56 | 22 | 9.0 | 19.0 | 0.01 | 0.37 | 0.18 | 90 | 1012.0 |
| 20260501204104 | 56 | 22 | 9.0 | 19.0 | 0.01 | 0.37 | 0.18 | 90 | 1012.0 |
| 20260501203904 | 56 | 18 | 9.0 | 16.0 | 0.01 | 0.38 | 0.18 | 90 | 1011.9 |
| 20260501203804 | 56 | 19 | 8.0 | 16.0 | 0.01 | 0.38 | 0.18 | 90 | 1011.9 |
| 20260501203704 | 56 | 19 | 9.0 | 16.0 | 0.01 | 0.38 | 0.18 | 90 | 1012.0 |
| 20260501203604 | 56 | 18 | 9.0 | 17.0 | 0.01 | 0.39 | 0.18 | 90 | 1012.0 |
| 20260501203504 | 56 | 18 | 9.0 | 17.0 | 0.01 | 0.39 | 0.18 | 90 | 1012.1 |
| 20260501203404 | 56 | 16 | 9.0 | 17.0 | 0.01 | 0.40 | 0.18 | 90 | 1012.1 |
| 20260501203305 | 56 | 16 | 8.0 | 17.0 | 0.01 | 0.40 | 0.18 | 90 | 1012.2 |
| 20260501203204 | 56 | 14 | 8.0 | 17.0 | 0.01 | 0.41 | 0.18 | 90 | 1012.2 |
| 20260501203103 | 56 | 12 | 8.0 | 17.0 | 0.01 | 0.41 | 0.18 | 90 | 1012.3 |
| 20260501203004 | 56 | 13 | 7.0 | 17.0 | 0.01 | 0.41 | 0.18 | 90 | 1012.4 |
| 20260501202904 | 56 | 13 | 7.0 | 17.0 | 0.01 | 0.42 | 0.18 | 90 | 1012.4 |
| 20260501202804 | 56 | 13 | 7.0 | 17.0 | 0.01 | 0.42 | 0.18 | 90 | 1012.4 |
| 20260501202703 | 56 | 14 | 7.0 | 17.0 | 0.01 | 0.42 | 0.18 | 91 | 1012.4 |
| 20260501202604 | 56 | 14 | 7.0 | 16.0 | 0.01 | 0.43 | 0.18 | 91 | 1012.5 |
| 20260501202504 | 56 | 15 | 7.0 | 16.0 | 0.01 | 0.43 | 0.18 | 91 | 1012.4 |
| 20260501202404 | 56 | 15 | 7.0 | 16.0 | 0.01 | 0.44 | 0.18 | 91 | 1012.5 |
| 20260501202306 | 56 | 16 | 7.0 | 16.0 | 0.01 | 0.44 | 0.18 | 91 | 1012.5 |
| 20260501202205 | 56 | 15 | 8.0 | 18.0 | 0.01 | 0.44 | 0.18 | 91 | 1012.5 |
| 20260501202103 | 56 | 16 | 8.0 | 18.0 | 0.01 | 0.44 | 0.18 | 91 | 1012.5 |
| 20260501202004 | 56 | 16 | 8.0 | 18.0 | 0.01 | 0.44 | 0.18 | 91 | 1012.5 |
| 20260501201904 | 56 | 16 | 8.0 | 18.0 | 0.01 | 0.45 | 0.18 | 91 | 1012.4 |
| 20260501201804 | 56 | 15 | 7.0 | 18.0 | 0.01 | 0.45 | 0.18 | 91 | 1012.4 |
| 20260501201704 | 56 | 14 | 7.0 | 18.0 | 0.01 | 0.45 | 0.18 | 91 | 1012.4 |
| 20260501201605 | 56 | 15 | 7.0 | 18.0 | 0.01 | 0.45 | 0.18 | 91 | 1012.4 |
| 20260501201504 | 56 | 13 | 8.0 | 18.0 | 0.01 | 0.45 | 0.18 | 91 | 1012.4 |
| 20260501201405 | 56 | 14 | 8.0 | 18.0 | 0.01 | 0.45 | 0.18 | 91 | 1012.4 |
| 20260501201204 | 56 | 17 | 7.0 | 18.0 | 0.01 | 0.46 | 0.18 | 91 | 1012.5 |
| 20260501201105 | 56 | 16 | 7.0 | 15.0 | 0.01 | 0.46 | 0.18 | 91 | 1012.5 |
| 20260501201005 | 56 | 17 | 7.0 | 15.0 | 0.01 | 0.46 | 0.18 | 91 | 1012.5 |
| 20260501200904 | 56 | 19 | 7.0 | 16.0 | 0.01 | 0.47 | 0.18 | 91 | 1012.4 |
| 20260501200804 | 56 | 18 | 7.0 | 16.0 | 0.01 | 0.47 | 0.18 | 91 | 1012.4 |
| 20260501200504 | 56 | 20 | 7.0 | 17.0 | 0.01 | 0.48 | 0.18 | 91 | 1012.2 |
| 20260501200404 | 56 | 19 | 7.0 | 17.0 | 0.01 | 0.49 | 0.18 | 92 | 1012.2 |
| 20260501200304 | 56 | 18 | 7.0 | 17.0 | 0.01 | 0.49 | 0.18 | 92 | 1012.2 |
| 20260501200204 | 56 | 18 | 8.0 | 17.0 | 0.01 | 0.50 | 0.18 | 91 | 1012.3 |
| 20260501200104 | 56 | 20 | 8.0 | 17.0 | 0.01 | 0.50 | 0.18 | 91 | 1012.3 |
| 20260501200004 | 56 | 23 | 8.0 | 17.0 | 0.01 | 0.50 | 0.18 | 92 | 1012.3 |
| 20260501195905 | 56 | 21 | 8.0 | 17.0 | 0.01 | 0.50 | 0.18 | 92 | 1012.3 |
| 20260501195704 | 56 | 23 | 8.0 | 17.0 | 0.01 | 0.50 | 0.18 | 91 | 1012.4 |
| 20260501195605 | 56 | 24 | 7.0 | 16.0 | 0.01 | 0.51 | 0.18 | 91 | 1012.5 |
| 20260501195504 | 56 | 24 | 7.0 | 16.0 | 0.01 | 0.51 | 0.18 | 91 | 1012.6 |
| 20260501195404 | 56 | 25 | 7.0 | 16.0 | 0.01 | 0.51 | 0.18 | 92 | 1012.6 |
| 20260501195305 | 56 | 25 | 7.0 | 16.0 | 0.01 | 0.51 | 0.18 | 91 | 1012.6 |
| 20260501195204 | 56 | 25 | 7.0 | 16.0 | 0.01 | 0.51 | 0.18 | 92 | 1012.7 |
| 20260501195105 | 56 | 24 | 7.0 | 16.0 | 0.01 | 0.51 | 0.18 | 92 | 1012.7 |
| 20260501195004 | 56 | 21 | 7.0 | 16.0 | 0.01 | 0.52 | 0.18 | 92 | 1012.7 |
| 20260501194904 | 56 | 21 | 7.0 | 14.0 | 0.00 | 0.51 | 0.17 | 92 | 1012.7 |
| 20260501194703 | 56 | 21 | 8.0 | 14.0 | 0.00 | 0.51 | 0.17 | 92 | 1012.8 |
| 20260501194404 | 56 | 20 | 8.0 | 15.0 | 0.00 | 0.51 | 0.17 | 92 | 1012.8 |
| 20260501194205 | 56 | 18 | 7.0 | 15.0 | 0.00 | 0.51 | 0.17 | 92 | 1012.7 |
| 20260501194104 | 56 | 18 | 7.0 | 15.0 | 0.00 | 0.51 | 0.17 | 92 | 1012.6 |
| 20260501194005 | 56 | 19 | 7.0 | 15.0 | 0.00 | 0.51 | 0.17 | 92 | 1012.7 |
| 20260501193703 | 56 | 20 | 7.0 | 15.0 | 0.01 | 0.51 | 0.17 | 92 | 1012.7 |
| 20260501193604 | 56 | 19 | 7.0 | 15.0 | 0.01 | 0.51 | 0.17 | 92 | 1012.7 |
| 20260501193503 | 56 | 18 | 7.0 | 15.0 | 0.01 | 0.51 | 0.17 | 92 | 1012.7 |
| 20260501193404 | 56 | 18 | 7.0 | 14.0 | 0.01 | 0.51 | 0.17 | 92 | 1012.7 |
| 20260501193304 | 56 | 19 | 7.0 | 14.0 | 0.01 | 0.51 | 0.17 | 92 | 1012.6 |
| 20260501193204 | 56 | 19 | 7.0 | 14.0 | 0.01 | 0.51 | 0.17 | 92 | 1012.6 |
| 20260501193104 | 56 | 18 | 7.0 | 14.0 | 0.01 | 0.51 | 0.17 | 92 | 1012.5 |
| 20260501192804 | 56 | 17 | 7.0 | 17.0 | 0.01 | 0.51 | 0.17 | 92 | 1012.6 |
| 20260501192704 | 56 | 18 | 7.0 | 17.0 | 0.01 | 0.51 | 0.17 | 93 | 1012.6 |
| 20260501192604 | 56 | 20 | 7.0 | 17.0 | 0.01 | 0.51 | 0.17 | 92 | 1012.6 |
| 20260501192404 | 56 | 25 | 7.0 | 18.0 | 0.01 | 0.51 | 0.17 | 92 | 1012.5 |
| 20260501192306 | 56 | 28 | 8.0 | 18.0 | 0.01 | 0.51 | 0.17 | 92 | 1012.5 |
| 20260501192204 | 56 | 32 | 8.0 | 18.0 | 0.01 | 0.51 | 0.17 | 92 | 1012.4 |
| 20260501192103 | 56 | 33 | 9.0 | 18.0 | 0.01 | 0.51 | 0.17 | 93 | 1012.3 |
| 20260501192004 | 56 | 37 | 9.0 | 18.0 | 0.01 | 0.51 | 0.17 | 93 | 1012.2 |
| 20260501191904 | 56 | 38 | 9.0 | 18.0 | 0.01 | 0.51 | 0.17 | 93 | 1012.1 |
| 20260501191804 | 56 | 38 | 9.0 | 18.0 | 0.01 | 0.51 | 0.17 | 93 | 1011.8 |
| 20260501191604 | 56 | 39 | 10.0 | 18.0 | 0.01 | 0.51 | 0.17 | 93 | 1011.7 |
| 20260501191404 | 56 | 37 | 10.0 | 18.0 | 0.01 | 0.51 | 0.17 | 93 | 1011.7 |
| 20260501191304 | 56 | 37 | 9.0 | 18.0 | 0.01 | 0.51 | 0.17 | 93 | 1011.7 |
| 20260501191204 | 56 | 34 | 9.0 | 18.0 | 0.01 | 0.51 | 0.17 | 93 | 1011.8 |
| 20260501191104 | 56 | 32 | 9.0 | 18.0 | 0.01 | 0.51 | 0.17 | 93 | 1011.9 |
| 20260501191004 | 56 | 28 | 8.0 | 17.0 | 0.01 | 0.51 | 0.17 | 93 | 1012.0 |
| 20260501190904 | 56 | 28 | 8.0 | 17.0 | 0.01 | 0.51 | 0.17 | 93 | 1011.9 |
| 20260501190804 | 56 | 28 | 8.0 | 17.0 | 0.01 | 0.51 | 0.17 | 93 | 1011.9 |
| 20260501190704 | 56 | 25 | 8.0 | 17.0 | 0.01 | 0.51 | 0.17 | 93 | 1012.0 |
| 20260501190604 | 56 | 23 | 7.0 | 17.0 | 0.01 | 0.51 | 0.17 | 93 | 1012.0 |
| 20260501190504 | 56 | 23 | 7.0 | 17.0 | 0.01 | 0.51 | 0.17 | 94 | 1012.0 |
| 20260501190404 | 56 | 25 | 7.0 | 17.0 | 0.01 | 0.51 | 0.17 | 94 | 1012.0 |
| 20260501190303 | 56 | 25 | 7.0 | 17.0 | 0.01 | 0.52 | 0.17 | 93 | 1012.2 |
| 20260501190104 | 56 | 26 | 7.0 | 17.0 | 0.01 | 0.52 | 0.17 | 93 | 1012.3 |
| 20260501190004 | 56 | 26 | 7.0 | 16.0 | 0.01 | 0.52 | 0.17 | 93 | 1012.3 |
| 20260501185905 | 56 | 24 | 7.0 | 16.0 | 0.01 | 0.52 | 0.17 | 93 | 1012.3 |
| 20260501185804 | 56 | 25 | 7.0 | 16.0 | 0.01 | 0.52 | 0.17 | 94 | 1012.4 |
| 20260501185703 | 56 | 27 | 7.0 | 16.0 | 0.01 | 0.52 | 0.17 | 93 | 1012.4 |
| 20260501185604 | 56 | 27 | 7.0 | 16.0 | 0.01 | 0.52 | 0.17 | 93 | 1012.4 |
| 20260501185504 | 56 | 27 | 7.0 | 16.0 | 0.01 | 0.52 | 0.17 | 93 | 1012.4 |
| 20260501185404 | 56 | 27 | 7.0 | 16.0 | 0.01 | 0.52 | 0.17 | 94 | 1012.4 |
| 20260501185306 | 56 | 26 | 7.0 | 14.0 | 0.01 | 0.52 | 0.17 | 94 | 1012.5 |
| 20260501185204 | 56 | 26 | 7.0 | 14.0 | 0.01 | 0.52 | 0.17 | 93 | 1012.6 |
| 20260501185104 | 56 | 28 | 7.0 | 17.0 | 0.01 | 0.52 | 0.17 | 93 | 1012.6 |
| 20260501184904 | 56 | 31 | 8.0 | 17.0 | 0.01 | 0.52 | 0.17 | 93 | 1012.8 |
| 20260501184704 | 56 | 29 | 7.0 | 17.0 | 0.01 | 0.53 | 0.17 | 93 | 1013.0 |
| 20260501184604 | 56 | 29 | 7.0 | 17.0 | 0.01 | 0.53 | 0.17 | 93 | 1013.0 |
| 20260501184505 | 56 | 23 | 8.0 | 17.0 | 0.01 | 0.53 | 0.17 | 93 | 1013.1 |
| 20260501184404 | 56 | 20 | 7.0 | 17.0 | 0.01 | 0.54 | 0.17 | 93 | 1013.2 |
| 20260501184304 | 56 | 20 | 7.0 | 17.0 | 0.01 | 0.54 | 0.17 | 93 | 1013.2 |
| 20260501184204 | 56 | 19 | 7.0 | 17.0 | 0.02 | 0.54 | 0.17 | 93 | 1013.3 |
| 20260501184104 | 55 | 15 | 6.0 | 15.0 | 0.02 | 0.54 | 0.17 | 93 | 1013.4 |
| 20260501184005 | 56 | 12 | 6.0 | 15.0 | 0.02 | 0.54 | 0.17 | 93 | 1013.6 |
| 20260501183904 | 56 | 8 | 5.0 | 15.0 | 0.02 | 0.55 | 0.17 | 93 | 1013.8 |
| 20260501183704 | 56 | 356 | 4.0 | 15.0 | 0.01 | 0.54 | 0.16 | 93 | 1014.3 |
| 20260501183604 | 56 | 353 | 4.0 | 15.0 | 0.01 | 0.54 | 0.16 | 93 | 1014.6 |
| 20260501183504 | 56 | 354 | 4.0 | 11.0 | 0.01 | 0.54 | 0.16 | 93 | 1014.6 |
| 20260501183404 | 56 | 350 | 3.0 | 11.0 | 0.01 | 0.55 | 0.16 | 93 | 1014.8 |
| 20260501183305 | 56 | 344 | 3.0 | 7.0 | 0.01 | 0.55 | 0.16 | 94 | 1014.8 |
| 20260501183204 | 56 | 341 | 3.0 | 7.0 | 0.01 | 0.55 | 0.16 | 94 | 1014.9 |
| 20260501183104 | 56 | 338 | 3.0 | 7.0 | 0.01 | 0.55 | 0.16 | 93 | 1015.0 |
| 20260501182905 | 56 | 335 | 3.0 | 7.0 | 0.01 | 0.56 | 0.16 | 93 | 1015.1 |
| 20260501182804 | 56 | 338 | 3.0 | 7.0 | 0.01 | 0.56 | 0.16 | 93 | 1015.2 |
| 20260501182704 | 56 | 349 | 3.0 | 8.0 | 0.01 | 0.56 | 0.16 | 93 | 1015.2 |
| 20260501182604 | 56 | 356 | 3.0 | 8.0 | 0.01 | 0.57 | 0.16 | 94 | 1015.3 |
| 20260501182504 | 56 | 8 | 3.0 | 8.0 | 0.01 | 0.57 | 0.16 | 94 | 1015.3 |
| 20260501182404 | 56 | 18 | 3.0 | 8.0 | 0.01 | 0.57 | 0.16 | 94 | 1015.3 |
| 20260501182205 | 56 | 27 | 3.0 | 8.0 | 0.01 | 0.57 | 0.16 | 94 | 1015.2 |
| 20260501182103 | 56 | 31 | 3.0 | 8.0 | 0.01 | 0.58 | 0.16 | 94 | 1015.0 |
| 20260501182004 | 56 | 33 | 3.0 | 8.0 | 0.01 | 0.58 | 0.16 | 93 | 1014.9 |
| 20260501181903 | 56 | 32 | 3.0 | 8.0 | 0.01 | 0.58 | 0.16 | 93 | 1014.8 |
| 20260501181804 | 56 | 29 | 4.0 | 15.0 | 0.01 | 0.59 | 0.16 | 93 | 1014.6 |
| 20260501181704 | 56 | 21 | 4.0 | 15.0 | 0.01 | 0.59 | 0.16 | 93 | 1014.5 |
| 20260501181604 | 56 | 21 | 5.0 | 15.0 | 0.01 | 0.59 | 0.16 | 93 | 1014.4 |
| 20260501181404 | 55 | 15 | 5.0 | 15.0 | 0.01 | 0.59 | 0.16 | 93 | 1014.3 |
| 20260501181304 | 55 | 14 | 5.0 | 15.0 | 0.01 | 0.60 | 0.16 | 93 | 1014.4 |
| 20260501181204 | 55 | 13 | 5.0 | 15.0 | 0.01 | 0.60 | 0.16 | 93 | 1014.4 |
| 20260501181104 | 55 | 12 | 5.0 | 15.0 | 0.01 | 0.60 | 0.16 | 93 | 1014.3 |
| 20260501181005 | 55 | 11 | 5.0 | 15.0 | 0.01 | 0.61 | 0.16 | 93 | 1014.3 |
| 20260501180904 | 55 | 10 | 5.0 | 15.0 | 0.01 | 0.62 | 0.16 | 93 | 1014.3 |
| 20260501180805 | 55 | 9 | 5.0 | 12.0 | 0.01 | 0.62 | 0.16 | 93 | 1014.2 |
| 20260501180604 | 55 | 7 | 4.0 | 11.0 | 0.01 | 0.63 | 0.16 | 93 | 1014.1 |
| 20260501180504 | 55 | 7 | 4.0 | 11.0 | 0.01 | 0.63 | 0.16 | 93 | 1014.0 |
| 20260501180404 | 55 | 9 | 4.0 | 11.0 | 0.01 | 0.63 | 0.16 | 93 | 1014.0 |
| 20260501180304 | 55 | 12 | 4.0 | 11.0 | 0.01 | 0.63 | 0.16 | 93 | 1014.0 |
| 20260501180204 | 55 | 14 | 4.0 | 11.0 | 0.01 | 0.64 | 0.16 | 93 | 1014.0 |
| 20260501180104 | 55 | 16 | 4.0 | 11.0 | 0.01 | 0.64 | 0.16 | 93 | 1013.9 |
| 20260501180004 | 55 | 17 | 4.0 | 11.0 | 0.01 | 0.64 | 0.16 | 93 | 1014.0 |
| 20260501175904 | 55 | 18 | 4.0 | 11.0 | 0.01 | 0.64 | 0.16 | 93 | 1014.0 |
| 20260501175804 | 55 | 17 | 4.0 | 11.0 | 0.01 | 0.64 | 0.16 | 93 | 1013.9 |
| 20260501175704 | 55 | 16 | 5.0 | 13.0 | 0.01 | 0.64 | 0.16 | 93 | 1013.9 |
| 20260501175603 | 55 | 19 | 5.0 | 13.0 | 0.01 | 0.65 | 0.16 | 93 | 1013.8 |
| 20260501175504 | 55 | 18 | 5.0 | 13.0 | 0.01 | 0.65 | 0.16 | 93 | 1013.7 |
| 20260501175405 | 55 | 16 | 5.0 | 13.0 | 0.01 | 0.65 | 0.16 | 93 | 1013.6 |
| 20260501175306 | 55 | 15 | 6.0 | 13.0 | 0.01 | 0.65 | 0.16 | 93 | 1013.6 |
| 20260501175205 | 55 | 15 | 6.0 | 13.0 | 0.01 | 0.65 | 0.16 | 93 | 1013.5 |
| 20260501175104 | 55 | 14 | 6.0 | 13.0 | 0.01 | 0.65 | 0.16 | 93 | 1013.6 |
| 20260501175004 | 55 | 14 | 5.0 | 13.0 | 0.01 | 0.65 | 0.16 | 93 | 1013.5 |
| 20260501174804 | 55 | 16 | 6.0 | 13.0 | 0.01 | 0.65 | 0.16 | 93 | 1013.4 |
| 20260501174704 | 55 | 16 | 6.0 | 12.0 | 0.01 | 0.65 | 0.16 | 93 | 1013.3 |
| 20260501174604 | 55 | 15 | 6.0 | 13.0 | 0.01 | 0.65 | 0.16 | 93 | 1013.2 |
| 20260501174504 | 55 | 16 | 6.0 | 13.0 | 0.01 | 0.65 | 0.16 | 93 | 1013.2 |
| 20260501174404 | 55 | 18 | 6.0 | 13.0 | 0.01 | 0.65 | 0.16 | 93 | 1013.3 |
| 20260501174303 | 55 | 19 | 6.0 | 13.0 | 0.00 | 0.64 | 0.15 | 93 | 1013.2 |
| 20260501174103 | 55 | 22 | 6.0 | 13.0 | 0.00 | 0.64 | 0.15 | 93 | 1013.3 |
| 20260501174004 | 55 | 23 | 7.0 | 13.0 | 0.00 | 0.64 | 0.15 | 93 | 1013.3 |
| 20260501173804 | 55 | 29 | 7.0 | 14.0 | 0.00 | 0.64 | 0.15 | 93 | 1013.3 |
| 20260501173704 | 55 | 33 | 7.0 | 14.0 | 0.00 | 0.64 | 0.15 | 93 | 1013.3 |
| 20260501173604 | 55 | 36 | 6.0 | 14.0 | 0.00 | 0.64 | 0.15 | 93 | 1013.2 |
| 20260501173503 | 55 | 38 | 6.0 | 14.0 | 0.00 | 0.64 | 0.15 | 93 | 1013.2 |
| 20260501173404 | 55 | 40 | 6.0 | 14.0 | 0.00 | 0.64 | 0.15 | 93 | 1013.2 |
| 20260501173303 | 55 | 40 | 6.0 | 14.0 | 0.00 | 0.64 | 0.15 | 93 | 1013.1 |
| 20260501173204 | 55 | 42 | 6.0 | 14.0 | 0.00 | 0.64 | 0.15 | 93 | 1013.1 |
| 20260501173104 | 55 | 45 | 7.0 | 15.0 | 0.00 | 0.64 | 0.15 | 93 | 1013.0 |
| 20260501173004 | 56 | 44 | 6.0 | 15.0 | 0.00 | 0.64 | 0.15 | 93 | 1013.0 |
| 20260501172904 | 55 | 43 | 6.0 | 15.0 | 0.00 | 0.64 | 0.15 | 93 | 1012.9 |
| 20260501172804 | 55 | 44 | 7.0 | 15.0 | 0.00 | 0.64 | 0.15 | 93 | 1012.9 |
| 20260501172704 | 55 | 44 | 6.0 | 15.0 | 0.00 | 0.64 | 0.15 | 93 | 1012.8 |
| 20260501172605 | 55 | 44 | 7.0 | 15.0 | 0.00 | 0.64 | 0.15 | 93 | 1012.8 |
| 20260501172504 | 55 | 45 | 7.0 | 15.0 | 0.00 | 0.64 | 0.15 | 93 | 1012.7 |
| 20260501172204 | 55 | 45 | 6.0 | 15.0 | 0.00 | 0.65 | 0.15 | 93 | 1012.6 |
| 20260501172103 | 55 | 43 | 6.0 | 13.0 | 0.00 | 0.65 | 0.15 | 93 | 1012.6 |
| 20260501172004 | 55 | 41 | 7.0 | 13.0 | 0.00 | 0.65 | 0.15 | 93 | 1012.7 |
| 20260501171903 | 55 | 39 | 7.0 | 13.0 | 0.00 | 0.65 | 0.15 | 93 | 1012.7 |
| 20260501171804 | 55 | 38 | 6.0 | 13.0 | 0.00 | 0.65 | 0.15 | 93 | 1012.8 |
| 20260501171703 | 55 | 36 | 6.0 | 13.0 | 0.00 | 0.65 | 0.15 | 93 | 1012.9 |
| 20260501171604 | 55 | 34 | 6.0 | 13.0 | 0.00 | 0.65 | 0.15 | 93 | 1012.9 |
| 20260501171504 | 55 | 35 | 7.0 | 13.0 | 0.00 | 0.65 | 0.15 | 93 | 1012.9 |
| 20260501171404 | 55 | 33 | 7.0 | 13.0 | 0.00 | 0.65 | 0.15 | 93 | 1012.9 |
| 20260501171303 | 55 | 33 | 7.0 | 13.0 | 0.00 | 0.66 | 0.15 | 93 | 1012.9 |
| 20260501171204 | 55 | 34 | 7.0 | 14.0 | 0.00 | 0.66 | 0.15 | 93 | 1012.9 |
| 20260501171104 | 55 | 34 | 7.0 | 15.0 | 0.00 | 0.66 | 0.15 | 93 | 1012.9 |